Observation Tools

Flowering dogwood Photo courtesy of Plant & Pest Diagnostic Laboratory, PurdueUniversity.

Flowering dogwood (Cornus florida)


Also Known As: Eastern dogwood
Plant Family: Dogwood (Cornaceae)
Project BudBurst Plant Group: Deciduous Trees and Shrubs

Identification Hints: One of the showiest dogwoods in the East due to its large, white, rounded bracts that look like petals. Dogwoodshave prominent leaf veins which curve parallel to the margins of the leaves. They are unusual in having flower parts in fours.

Did you Know? Flowering dogwood is a very popular treeoften used as an ornamental. You might find non native cultivars with different colored flowers (red and pink). Many species of birds and mammals browse the fruits, leaves, and twigs. The white wood is hard, tough, close-grained, and goodfor making tool handles.


Live Map for Flowering dogwood

Other years available for viewing:

Below you can view all observations that have been reported in for Flowering dogwood (If the map below is empty then there have not been any observations reported.)

Use the navigation buttons on the left to zoom in/out and pan around. Click on each place marker to get detail information about that observation.

Leaf/Needles/Stalk = Leaf/Needles/Stalk Flower = Flower Pollen = Pollen Fruiting = Fruiting Color = Color

--Back to Top--

close help window button

The table below displays all the data that has been submitted to Project BudBurst. By default, the data is sorted by the date on which the phenophase occurred. Clicking the up and down arrows next to each column name allows you to sort on any value. If there have been more than 10 observations submitted, you can choose how many to display at a time using the "Show __ entries" control. You can also page through the data using the previous and next buttons at the bottom right of the table.

The Search box allows you to search all of the data. Searching by date, species, phenophase, etc. is easy—just start typing and the table will immediately change to contain only observations that contain your search phrase. Do you want to see only 2012 observations? Just type "2012" in the search box. Only want to see maples? Enter "Acer." You can combine searches, too! Searching for "acer 2012" will narrow your results to only the maples that were observed in 2012 (assuming that any observations exist, of course).

Once you have your results in the order desired, you can use any of the buttons above the search box to copy the results to the clipboard; save them as a text, or spreadsheet; or even print them from your browser!

Observational data for Flowering dogwood:

help button
Date Contributor Common Name Species Phenophase Latitude Longitude Obs#
Mon Feb 18 00:00:00 GMT 2008 schoen Flowering dogwood Cornus florida First Leaf 39.072300000000000 -77.096100000000000 70
Sat Mar 01 00:00:00 GMT 2008 anonymous Flowering dogwood Cornus florida First Leaf 30.268700000000000 -97.745200000000000 391
Wed Mar 12 00:00:00 GMT 2008 DRogers@iglou.com Flowering dogwood Cornus florida First Leaf 38.336100000000000 -85.627500000000000 496
Wed Mar 05 00:00:00 GMT 2008 manatees2 Flowering dogwood Cornus florida First Leaf 28.991100000000000 -82.637900000000000 590
Mon Mar 10 00:00:00 GMT 2008 manatees2 Flowering dogwood Cornus florida First Flower 28.991100000000000 -82.637900000000000 591
Fri Mar 14 00:00:00 GMT 2008 jlraby Flowering dogwood Cornus florida First Flower 30.570700000000000 -87.882700000000000 633
Wed Mar 19 00:00:00 GMT 2008 naullain Flowering dogwood Cornus florida First Leaf 35.551000000000000 -86.136900000000000 661
Sun Mar 23 00:00:00 GMT 2008 jdcasey Flowering dogwood Cornus florida End of Flowering 29.651000000000000 -82.325000000000000 862
Sun Mar 23 00:00:00 GMT 2008 naturalist Flowering dogwood Cornus florida First Flower 35.220000000000000 -80.800000000000000 863
Sat Mar 22 00:00:00 GMT 2008 BioPatriot Flowering dogwood Cornus florida Full Flower 30.458600000000000 -84.290300000000000 894
Wed May 21 00:00:00 GMT 2008 j9l2g@juno.com Flowering dogwood Cornus florida First Leaf 33.472300000000000 -84.173600000000000 896
Tue Mar 18 00:00:00 GMT 2008 anonymous Flowering dogwood Cornus florida First Leaf 38.500000000000000 -121.400000000000000 933
Mon Mar 17 00:00:00 GMT 2008 jlraby Flowering dogwood Cornus florida First Leaf 30.570700000000000 -87.882700000000000 970
Sun Mar 23 00:00:00 GMT 2008 jlraby Flowering dogwood Cornus florida Full Flower 30.570700000000000 -87.882700000000000 971
Sun Mar 30 00:00:00 GMT 2008 drhartel Flowering dogwood Cornus florida First Leaf 34.053600000000000 -83.123100000000000 1022
Fri Mar 28 00:00:00 GMT 2008 selu Flowering dogwood Cornus florida First Leaf 39.016800000000000 -77.023800000000000 1023
Sat Mar 29 00:00:00 GMT 2008 Patti Bayard Flowering dogwood Cornus florida First Flower 38.755300000000000 -120.615000000000000 1075
Mon Mar 31 00:00:00 GMT 2008 aboddie Flowering dogwood Cornus florida First Flower 35.098600000000000 -89.783700000000000 1078
Mon Mar 31 00:00:00 GMT 2008 wvtroutbum Flowering dogwood Cornus florida Full Flower 38.402700000000000 -81.747800000000000 1165
Thu Mar 20 00:00:00 GMT 2008 smkerwin2 Flowering dogwood Cornus florida First Leaf 40.727100000000000 -89.593100000000000 1166
Fri Apr 04 00:00:00 GMT 2008 Meg & Mom Flowering dogwood Cornus florida First Flower 34.495300000000000 -84.353400000000000 1273
Mon Apr 07 00:00:00 GMT 2008 Meg & Mom Flowering dogwood Cornus florida Full Flower 34.495300000000000 -84.353400000000000 1274
Tue Apr 01 00:00:00 GMT 2008 j9l2g@juno.com Flowering dogwood Cornus florida Full Flower 33.472300000000000 -84.173600000000000 1295
Thu Mar 20 00:00:00 GMT 2008 rosecottageltd Flowering dogwood Cornus florida First Leaf 35.666100000000000 -79.430800000000000 1307
Tue Mar 25 00:00:00 GMT 2008 rosecottageltd Flowering dogwood Cornus florida All Leaves Unfolded 35.666100000000000 -79.430800000000000 1308
Sat Apr 05 00:00:00 GMT 2008 rosecottageltd Flowering dogwood Cornus florida First Flower 35.666100000000000 -79.430800000000000 1309
Mon Mar 31 00:00:00 GMT 2008 anonymous Flowering dogwood Cornus florida Full Flower 36.702500000000000 -76.231300000000000 1345
Thu Apr 03 00:00:00 GMT 2008 anonymous Flowering dogwood Cornus florida First Leaf 34.666800000000000 -83.725500000000000 1355
Sat Apr 05 00:00:00 GMT 2008 anonymous Flowering dogwood Cornus florida First Flower 34.666800000000000 -83.725500000000000 1356
Tue Apr 08 00:00:00 GMT 2008 anonymous Flowering dogwood Cornus florida Full Flower 34.666800000000000 -83.725500000000000 1357
Mon Apr 07 00:00:00 GMT 2008 Hillersouth Flowering dogwood Cornus florida First Leaf 34.666800000000000 -83.725500000000000 1358
Mon Apr 07 00:00:00 GMT 2008 Hillersouth Flowering dogwood Cornus florida First Leaf 34.785200000000000 -83.933300000000000 1362
Tue Apr 08 00:00:00 GMT 2008 naturalist Flowering dogwood Cornus florida Full Flower 35.220000000000000 -80.800000000000000 1380
Wed Apr 02 00:00:00 GMT 2008 otter19 Flowering dogwood Cornus florida First Flower 35.760900000000000 -81.332400000000000 1449
Tue Apr 08 00:00:00 GMT 2008 otter19 Flowering dogwood Cornus florida Full Flower 35.760900000000000 -81.332400000000000 1450
Fri May 23 00:00:00 GMT 2008 j9l2g@juno.com Flowering dogwood Cornus florida First Flower 33.472300000000000 -84.173600000000000 1503
Mon Apr 07 00:00:00 GMT 2008 anonymous Flowering dogwood Cornus florida First Flower 36.015500000000000 -84.220200000000000 1506
Wed Apr 09 00:00:00 GMT 2008 jenulsh@northhempstead.com Flowering dogwood Cornus florida First Leaf 40.705500000000000 -73.448900000000000 1641
Fri Mar 21 00:00:00 GMT 2008 anonymous Flowering dogwood Cornus florida First Leaf 32.423900000000000 -81.779300000000000 1700
Tue Mar 25 00:00:00 GMT 2008 anonymous Flowering dogwood Cornus florida All Leaves Unfolded 32.423900000000000 -81.779300000000000 1701
Sun Mar 16 00:00:00 GMT 2008 anonymous Flowering dogwood Cornus florida First Flower 32.423900000000000 -81.779300000000000 1702
Wed Mar 26 00:00:00 GMT 2008 anonymous Flowering dogwood Cornus florida Full Flower 32.423900000000000 -81.779300000000000 1703
Thu Apr 10 00:00:00 GMT 2008 anonymous Flowering dogwood Cornus florida End of Flowering 32.423900000000000 -81.779300000000000 1704
Tue Apr 15 00:00:00 GMT 2008 engle-hills Flowering dogwood Cornus florida Full Flower 37.122100000000000 -76.448600000000000 1731
Wed Apr 16 00:00:00 GMT 2008 elasil Flowering dogwood Cornus florida First Leaf 40.953500000000000 -74.138500000000000 1789
Tue Apr 08 00:00:00 GMT 2008 jlraby Flowering dogwood Cornus florida All Leaves Unfolded 30.570700000000000 -87.882700000000000 1793
Fri Apr 18 00:00:00 GMT 2008 mszalega Flowering dogwood Cornus florida First Leaf 42.410000000000000 -83.270000000000000 1860
Sat Apr 19 00:00:00 GMT 2008 Jingles Flowering dogwood Cornus florida First Flower 39.826100000000000 -75.615600000000000 1871
Mon Apr 14 00:00:00 GMT 2008 selu Flowering dogwood Cornus florida First Flower 39.016800000000000 -77.023800000000000 1935
Mon Apr 21 00:00:00 GMT 2008 selu Flowering dogwood Cornus florida Full Flower 39.016800000000000 -77.023800000000000 1936
Mon Apr 21 00:00:00 GMT 2008 shopgirl12545 Flowering dogwood Cornus florida First Flower 41.782600000000000 -73.690000000000000 2012
Fri Mar 14 00:00:00 GMT 2008 anonymous Flowering dogwood Cornus florida First Leaf 32.613900000000000 -81.921700000000000 2104
Thu Apr 03 00:00:00 GMT 2008 anonymous Flowering dogwood Cornus florida All Leaves Unfolded 32.613900000000000 -81.921700000000000 2105
Tue Mar 11 00:00:00 GMT 2008 anonymous Flowering dogwood Cornus florida First Flower 32.613900000000000 -81.921700000000000 2106
Sun Mar 23 00:00:00 GMT 2008 anonymous Flowering dogwood Cornus florida Full Flower 32.613900000000000 -81.921700000000000 2107
Wed Apr 16 00:00:00 GMT 2008 anonymous Flowering dogwood Cornus florida End of Flowering 32.613900000000000 -81.921700000000000 2108
Tue Mar 11 00:00:00 GMT 2008 anonymous Flowering dogwood Cornus florida First Leaf 32.586700000000000 -81.982800000000000 2109
Fri Mar 28 00:00:00 GMT 2008 anonymous Flowering dogwood Cornus florida All Leaves Unfolded 32.586700000000000 -81.982800000000000 2110
Sat Mar 08 00:00:00 GMT 2008 anonymous Flowering dogwood Cornus florida First Flower 32.586700000000000 -81.982800000000000 2111
Mon Mar 17 00:00:00 GMT 2008 anonymous Flowering dogwood Cornus florida Full Flower 32.586700000000000 -81.982800000000000 2112
Wed Apr 09 00:00:00 GMT 2008 anonymous Flowering dogwood Cornus florida End of Flowering 32.586700000000000 -81.982800000000000 2113
Fri Mar 14 00:00:00 GMT 2008 anonymous Flowering dogwood Cornus florida First Leaf 32.589700000000000 -81.995000000000000 2116
Thu Apr 03 00:00:00 GMT 2008 anonymous Flowering dogwood Cornus florida All Leaves Unfolded 32.589700000000000 -81.995000000000000 2117
Tue Mar 11 00:00:00 GMT 2008 anonymous Flowering dogwood Cornus florida First Flower 32.589700000000000 -81.995000000000000 2118
Sun Mar 23 00:00:00 GMT 2008 anonymous Flowering dogwood Cornus florida Full Flower 32.589700000000000 -81.995000000000000 2119
Tue Apr 15 00:00:00 GMT 2008 anonymous Flowering dogwood Cornus florida End of Flowering 32.589700000000000 -81.995000000000000 2120
Mon Mar 03 00:00:00 GMT 2008 leege Flowering dogwood Cornus florida First Leaf 32.000000000000000 -81.000000000000000 2130
Tue Mar 18 00:00:00 GMT 2008 leege Flowering dogwood Cornus florida All Leaves Unfolded 32.000000000000000 -81.000000000000000 2131
Mon Mar 03 00:00:00 GMT 2008 leege Flowering dogwood Cornus florida First Flower 32.000000000000000 -81.000000000000000 2132
Tue Mar 18 00:00:00 GMT 2008 leege Flowering dogwood Cornus florida Full Flower 32.000000000000000 -81.000000000000000 2133
Sat Apr 05 00:00:00 GMT 2008 leege Flowering dogwood Cornus florida End of Flowering 32.000000000000000 -81.000000000000000 2134
Tue Mar 11 00:00:00 GMT 2008 clowerpower86 Flowering dogwood Cornus florida First Leaf 31.559400000000000 -81.595700000000000 2135
Tue Apr 22 00:00:00 GMT 2008 clowerpower86 Flowering dogwood Cornus florida All Leaves Unfolded 31.559400000000000 -81.595700000000000 2136
Wed Mar 26 00:00:00 GMT 2008 clowerpower86 Flowering dogwood Cornus florida First Flower 31.559400000000000 -81.595700000000000 2137
Sun Apr 13 00:00:00 GMT 2008 clowerpower86 Flowering dogwood Cornus florida Full Flower 31.559400000000000 -81.595700000000000 2138
Sun Apr 20 00:00:00 GMT 2008 clowerpower86 Flowering dogwood Cornus florida End of Flowering 31.559400000000000 -81.595700000000000 2139
Wed Apr 23 00:00:00 GMT 2008 Charles_Sullivan Flowering dogwood Cornus florida Full Flower 39.300000000000000 -78.180000000000000 2155
Sun Mar 16 00:00:00 GMT 2008 anonymous Flowering dogwood Cornus florida First Leaf 32.253100000000000 -81.466100000000000 2196
Tue Mar 18 00:00:00 GMT 2008 anonymous Flowering dogwood Cornus florida All Leaves Unfolded 32.253100000000000 -81.466100000000000 2197
Thu Feb 28 00:00:00 GMT 2008 anonymous Flowering dogwood Cornus florida First Flower 32.253100000000000 -81.466100000000000 2198
Mon Mar 03 00:00:00 GMT 2008 anonymous Flowering dogwood Cornus florida Full Flower 32.253100000000000 -81.466100000000000 2199
Sat Mar 22 00:00:00 GMT 2008 anonymous Flowering dogwood Cornus florida End of Flowering 32.253100000000000 -81.466100000000000 2200
Tue Apr 08 00:00:00 GMT 2008 anonymous Flowering dogwood Cornus florida First Ripe Fruit 32.253100000000000 -81.466100000000000 2201
Mon Apr 21 00:00:00 GMT 2008 budburst Flowering dogwood Cornus florida First Flower 39.425100000000000 -82.259600000000000 2280
Thu Apr 24 00:00:00 GMT 2008 budburst Flowering dogwood Cornus florida Full Flower 39.425100000000000 -82.259600000000000 2281
Thu Apr 24 00:00:00 GMT 2008 Jingles Flowering dogwood Cornus florida First Leaf 39.826100000000000 -75.615600000000000 2302
Fri Apr 25 00:00:00 GMT 2008 Patti Bayard Flowering dogwood Cornus florida Full Flower 38.755300000000000 -120.615000000000000 2386
Sun Apr 20 00:00:00 GMT 2008 Patti Bayard Flowering dogwood Cornus florida First Leaf 38.755300000000000 -120.615000000000000 2392
Sat Apr 26 00:00:00 GMT 2008 elasil Flowering dogwood Cornus florida First Flower 40.953500000000000 -74.138500000000000 2404
Sun Apr 27 00:00:00 GMT 2008 Ilse Flowering dogwood Cornus florida Full Flower 41.582400000000000 -73.901800000000000 2432
Tue May 27 00:00:00 GMT 2008 naturalist Flowering dogwood Cornus florida End of Flowering 35.220000000000000 -80.800000000000000 2438
Sun Apr 27 00:00:00 GMT 2008 shopgirl12545 Flowering dogwood Cornus florida All Leaves Unfolded 41.782600000000000 -73.690000000000000 2533
Fri Apr 25 00:00:00 GMT 2008 shopgirl12545 Flowering dogwood Cornus florida Full Flower 41.782600000000000 -73.690000000000000 2534
Tue Apr 22 00:00:00 GMT 2008 Jodie Flowering dogwood Cornus florida Full Flower 41.025600000000000 -74.331000000000000 2541
Mon Apr 28 00:00:00 GMT 2008 jenulsh@northhempstead.com Flowering dogwood Cornus florida Full Flower 40.705500000000000 -73.448900000000000 2592
Fri Apr 25 00:00:00 GMT 2008 IlexAcer Flowering dogwood Cornus florida First Flower 42.414800000000000 -71.215700000000000 2609
Fri Apr 18 00:00:00 GMT 2008 lswerdloff Flowering dogwood Cornus florida First Flower 38.940800000000000 -77.045300000000000 2616
Tue Apr 22 00:00:00 GMT 2008 lswerdloff Flowering dogwood Cornus florida Full Flower 38.940800000000000 -77.045300000000000 2617
Thu Apr 24 00:00:00 GMT 2008 greemedogs Flowering dogwood Cornus florida First Flower 41.812100000000000 -72.844100000000000 2658
Wed Apr 23 00:00:00 GMT 2008 greemedogs Flowering dogwood Cornus florida First Flower 41.785700000000000 -72.502300000000000 2663
Fri Apr 04 00:00:00 GMT 2008 cpartain Flowering dogwood Cornus florida First Flower 34.766600000000000 -92.369600000000000 2674
Tue Apr 22 00:00:00 GMT 2008 naturalistg Flowering dogwood Cornus florida Full Flower 39.658700000000000 -79.987300000000000 2698
Mon Apr 28 00:00:00 GMT 2008 elasil Flowering dogwood Cornus florida All Leaves Unfolded 40.953500000000000 -74.138500000000000 2711
Sun May 04 00:00:00 GMT 2008 elasil Flowering dogwood Cornus florida Full Flower 40.953500000000000 -74.138500000000000 2813
Tue Apr 15 00:00:00 GMT 2008 forevergardener Flowering dogwood Cornus florida First Leaf 39.945100000000000 -74.814200000000000 3135
Tue Apr 22 00:00:00 GMT 2008 forevergardener Flowering dogwood Cornus florida All Leaves Unfolded 39.945100000000000 -74.814200000000000 3136
Sun Apr 27 00:00:00 GMT 2008 forevergardener Flowering dogwood Cornus florida First Flower 39.945100000000000 -74.814200000000000 3137
Sat May 17 00:00:00 GMT 2008 forevergardener Flowering dogwood Cornus florida Full Flower 39.945100000000000 -74.814200000000000 3138
Wed Apr 30 00:00:00 GMT 2008 selu Flowering dogwood Cornus florida All Leaves Unfolded 39.016800000000000 -77.023800000000000 3147
Mon May 05 00:00:00 GMT 2008 selu Flowering dogwood Cornus florida End of Flowering 39.016800000000000 -77.023800000000000 3148
Sat May 10 00:00:00 GMT 2008 naturalist Flowering dogwood Cornus florida All Leaves Unfolded 35.220000000000000 -80.800000000000000 3180
Thu May 08 00:00:00 GMT 2008 anonymous Flowering dogwood Cornus florida Full Flower 41.021600000000000 -81.739900000000000 3250
Thu May 08 00:00:00 GMT 2008 anonymous Flowering dogwood Cornus florida Full Flower 41.021000000000000 -81.739400000000000 3259
Thu May 08 00:00:00 GMT 2008 anonymous Flowering dogwood Cornus florida Full Flower 41.011600000000000 -81.442400000000000 3366
Thu May 08 00:00:00 GMT 2008 anonymous Flowering dogwood Cornus florida Full Flower 41.021400000000000 -81.739100000000000 3372
Thu May 08 00:00:00 GMT 2008 anonymous Flowering dogwood Cornus florida First Leaf 41.021400000000000 -81.739100000000000 3389
Thu May 08 00:00:00 GMT 2008 anonymous Flowering dogwood Cornus florida All Leaves Unfolded 41.021400000000000 -81.739100000000000 3390
Thu May 08 00:00:00 GMT 2008 anonymous Flowering dogwood Cornus florida Full Flower 41.021400000000000 -81.739100000000000 3391
Mon May 12 00:00:00 GMT 2008 elasil Flowering dogwood Cornus florida End of Flowering 40.953500000000000 -74.138500000000000 3484
Sun May 11 00:00:00 GMT 2008 robs57 Flowering dogwood Cornus florida End of Flowering 39.186300000000000 -76.838500000000000 3525
Fri Apr 11 00:00:00 GMT 2008 anonymous Flowering dogwood Cornus florida First Leaf 38.926500000000000 -77.339500000000000 3576
Fri May 09 00:00:00 GMT 2008 Patti Bayard Flowering dogwood Cornus florida All Leaves Unfolded 38.755300000000000 -120.615000000000000 3685
Tue May 20 00:00:00 GMT 2008 shopgirl12545 Flowering dogwood Cornus florida End of Flowering 41.782600000000000 -73.690000000000000 3793
Thu Apr 24 00:00:00 GMT 2008 Jingles Flowering dogwood Cornus florida Full Flower 39.826100000000000 -75.615600000000000 3853
Tue May 20 00:00:00 GMT 2008 Jingles Flowering dogwood Cornus florida End of Flowering 39.826100000000000 -75.615600000000000 3854
Sun Apr 20 00:00:00 GMT 2008 volunteerton Flowering dogwood Cornus florida First Leaf 36.401300000000000 -86.440600000000000 3906
Thu Apr 10 00:00:00 GMT 2008 volunteerton Flowering dogwood Cornus florida First Flower 36.401300000000000 -86.440600000000000 3907
Sun Apr 20 00:00:00 GMT 2008 vanndawn Flowering dogwood Cornus florida First Leaf 38.996400000000000 -92.613100000000000 4363
Fri Apr 25 00:00:00 GMT 2008 vanndawn Flowering dogwood Cornus florida First Flower 38.996400000000000 -92.613100000000000 4364
Thu May 01 00:00:00 GMT 2008 vanndawn Flowering dogwood Cornus florida Full Flower 38.996400000000000 -92.613100000000000 4365
Wed Apr 23 00:00:00 GMT 2008 rg Flowering dogwood Cornus florida First Flower 39.671500000000000 -82.541200000000000 4634
Thu Sep 18 00:00:00 GMT 2008 Jingles Flowering dogwood Cornus florida First Ripe Fruit 39.826100000000000 -75.615600000000000 4684
Tue Apr 22 00:00:00 GMT 2008 BioBarb Flowering dogwood Cornus florida First Leaf 40.177800000000000 -74.219000000000000 4727
Sat Apr 26 00:00:00 GMT 2008 BioBarb Flowering dogwood Cornus florida All Leaves Unfolded 40.177800000000000 -74.219000000000000 4728
Tue Apr 08 00:00:00 GMT 2008 BioBarb Flowering dogwood Cornus florida First Flower 40.177800000000000 -74.219000000000000 4729
Tue Apr 22 00:00:00 GMT 2008 BioBarb Flowering dogwood Cornus florida Full Flower 40.177800000000000 -74.219000000000000 4730
Wed May 14 00:00:00 GMT 2008 BioBarb Flowering dogwood Cornus florida End of Flowering 40.177800000000000 -74.219000000000000 4731
Sun Sep 07 00:00:00 GMT 2008 BioBarb Flowering dogwood Cornus florida First Ripe Fruit 40.177800000000000 -74.219000000000000 4732
Wed Apr 30 00:00:00 GMT 2008 plantwatchers Flowering dogwood Cornus florida First Leaf 40.436600000000000 -86.912800000000000 4746
Sat May 03 00:00:00 GMT 2008 plantwatchers Flowering dogwood Cornus florida First Flower 40.436600000000000 -86.912800000000000 4747
Tue Mar 17 00:00:00 GMT 2009 anonymous Flowering dogwood Cornus florida First Leaf 35.120000000000000 -80.810000000000000 5217
Mon Mar 23 00:00:00 GMT 2009 anonymous Flowering dogwood Cornus florida All Leaves Unfolded 35.120000000000000 -80.810000000000000 5218
Tue Mar 17 00:00:00 GMT 2009 anonymous Flowering dogwood Cornus florida First Flower 35.042100000000000 -80.735800000000000 5229
Fri Mar 20 00:00:00 GMT 2009 anonymous Flowering dogwood Cornus florida Full Flower 35.042100000000000 -80.735800000000000 5230
Tue Mar 10 00:00:00 GMT 2009 anonymous Flowering dogwood Cornus florida First Leaf 35.839100000000000 -78.655900000000000 5311
Wed Mar 25 00:00:00 GMT 2009 debeagle1 Flowering dogwood Cornus florida All Leaves Unfolded 35.860500000000000 -83.953400000000000 5306
Sat Mar 14 00:00:00 GMT 2009 anonymous Flowering dogwood Cornus florida First Leaf 35.151400000000000 -80.819300000000000 5333
Tue Mar 31 00:00:00 GMT 2009 gmuenchow Flowering dogwood Cornus florida End of Flowering 30.359200000000000 -84.271500000000000 5347
Sat Mar 28 00:00:00 GMT 2009 International School of Chapel Hill Flowering dogwood Cornus florida First Leaf 35.933900000000000 -79.009200000000000 5354
Tue Mar 03 00:00:00 GMT 2009 anonymous Flowering dogwood Cornus florida First Leaf 38.433500000000000 -77.424300000000000 5374
Fri Mar 20 00:00:00 GMT 2009 anonymous Flowering dogwood Cornus florida All Leaves Unfolded 38.433500000000000 -77.424300000000000 5375
Sat Mar 28 00:00:00 GMT 2009 anonymous Flowering dogwood Cornus florida First Flower 38.433500000000000 -77.424300000000000 5376
Wed Apr 01 00:00:00 GMT 2009 anonymous Flowering dogwood Cornus florida Full Flower 38.433500000000000 -77.424300000000000 5377
Fri Apr 03 00:00:00 GMT 2009 mdunn Flowering dogwood Cornus florida First Leaf 35.757100000000000 -79.107000000000000 5445
Wed Apr 01 00:00:00 GMT 2009 International School of Chapel Hill Flowering dogwood Cornus florida First Flower 35.933900000000000 -79.009200000000000 5464
Wed Mar 25 00:00:00 GMT 2009 Tasha.Berg Flowering dogwood Cornus florida First Leaf 37.541100000000000 -77.536400000000000 5507
Sat Apr 04 00:00:00 GMT 2009 Tasha.Berg Flowering dogwood Cornus florida All Leaves Unfolded 37.541100000000000 -77.536400000000000 5508
Wed Apr 08 00:00:00 GMT 2009 Tasha.Berg Flowering dogwood Cornus florida First Flower 37.541100000000000 -77.536400000000000 5509
Sun Apr 12 00:00:00 GMT 2009 MSuddeth Flowering dogwood Cornus florida First Flower 38.972700000000000 -76.732000000000000 5595
Sun Apr 12 00:00:00 GMT 2009 debeagle1 Flowering dogwood Cornus florida Full Flower 35.860500000000000 -83.953400000000000 5596
Sat Apr 11 00:00:00 GMT 2009 Wildegenes Flowering dogwood Cornus florida First Flower 38.899100000000000 -77.098400000000000 5670
Wed Apr 08 00:00:00 GMT 2009 klanderson Flowering dogwood Cornus florida First Flower 38.636800000000000 -76.606500000000000 5609
Mon Apr 13 00:00:00 GMT 2009 sheltonirisd Flowering dogwood Cornus florida Full Flower 35.796400000000000 -84.687000000000000 5617
Fri Apr 10 00:00:00 GMT 2009 fsanford Flowering dogwood Cornus florida First Flower 38.946800000000000 -77.070500000000000 5677
Sun Mar 08 00:00:00 GMT 2009 Littlehorse7650 Flowering dogwood Cornus florida First Leaf 35.825200000000000 -84.560000000000000 5760
Fri Mar 20 00:00:00 GMT 2009 Littlehorse7650 Flowering dogwood Cornus florida All Leaves Unfolded 35.825200000000000 -84.560000000000000 5761
Tue Mar 31 00:00:00 GMT 2009 Littlehorse7650 Flowering dogwood Cornus florida First Flower 35.825200000000000 -84.560000000000000 5762
Sun Apr 12 00:00:00 GMT 2009 Littlehorse7650 Flowering dogwood Cornus florida Full Flower 35.825200000000000 -84.560000000000000 5763
Fri Mar 27 00:00:00 GMT 2009 ekesmode Flowering dogwood Cornus florida First Leaf 39.160000000000000 -86.490000000000000 5781
Tue Mar 10 00:00:00 GMT 2009 anonymous Flowering dogwood Cornus florida First Flower 39.164300000000000 -86.526900000000000 5879
Thu Mar 26 00:00:00 GMT 2009 anonymous Flowering dogwood Cornus florida Full Flower 39.164300000000000 -86.526900000000000 5880
Tue Apr 07 00:00:00 GMT 2009 anonymous Flowering dogwood Cornus florida End of Flowering 39.164300000000000 -86.526900000000000 5881
Fri Mar 06 00:00:00 GMT 2009 anonymous Flowering dogwood Cornus florida First Flower 39.160000000000000 -86.490000000000000 5904
Sat Mar 28 00:00:00 GMT 2009 anonymous Flowering dogwood Cornus florida Full Flower 39.160000000000000 -86.490000000000000 5905
Tue Apr 14 00:00:00 GMT 2009 birdfoot Flowering dogwood Cornus florida First Flower 38.920800000000000 -77.325000000000000 5900
Fri Apr 17 00:00:00 GMT 2009 anonymous Flowering dogwood Cornus florida First Leaf 38.990000000000000 -77.080000000000000 5940
Fri Mar 27 00:00:00 GMT 2009 anonymous Flowering dogwood Cornus florida First Flower 39.160000000000000 -86.490000000000000 5936
Sun Apr 19 00:00:00 GMT 2009 ty5734mullen@yahoo.com Flowering dogwood Cornus florida First Flower 39.461400000000000 -77.309400000000000 5833
Fri Mar 06 00:00:00 GMT 2009 anonymous Flowering dogwood Cornus florida First Leaf 39.140000000000000 -86.620000000000000 6025
Fri Mar 27 00:00:00 GMT 2009 anonymous Flowering dogwood Cornus florida All Leaves Unfolded 39.140000000000000 -86.620000000000000 6026
Fri Mar 06 00:00:00 GMT 2009 anonymous Flowering dogwood Cornus florida First Flower 39.160000000000000 -86.490000000000000 6047
Fri Mar 27 00:00:00 GMT 2009 anonymous Flowering dogwood Cornus florida Full Flower 39.160000000000000 -86.490000000000000 6048
Fri Mar 06 00:00:00 GMT 2009 anonymous Flowering dogwood Cornus florida First Flower 39.160000000000000 -86.490000000000000 6049
Fri Mar 27 00:00:00 GMT 2009 anonymous Flowering dogwood Cornus florida Full Flower 39.160000000000000 -86.490000000000000 6050
Sun Apr 19 00:00:00 GMT 2009 jmchris Flowering dogwood Cornus florida First Flower 39.252800000000000 -75.914300000000000 6127
Thu Mar 12 00:00:00 GMT 2009 anonymous Flowering dogwood Cornus florida First Leaf 39.160000000000000 -86.490000000000000 6132
Mon Mar 23 00:00:00 GMT 2009 anonymous Flowering dogwood Cornus florida All Leaves Unfolded 39.160000000000000 -86.490000000000000 6133
Sat Feb 28 00:00:00 GMT 2009 anonymous Flowering dogwood Cornus florida First Leaf 39.164300000000000 -86.526900000000000 6192
Sat Apr 04 00:00:00 GMT 2009 anonymous Flowering dogwood Cornus florida All Leaves Unfolded 39.164300000000000 -86.526900000000000 6193
Sun Mar 15 00:00:00 GMT 2009 anonymous Flowering dogwood Cornus florida First Flower 39.164300000000000 -86.526900000000000 6194
Sat Apr 04 00:00:00 GMT 2009 anonymous Flowering dogwood Cornus florida Full Flower 39.164300000000000 -86.526900000000000 6195
Sat Mar 28 00:00:00 GMT 2009 anonymous Flowering dogwood Cornus florida First Ripe Fruit 39.164300000000000 -86.526900000000000 6196
Sat Mar 28 00:00:00 GMT 2009 anonymous Flowering dogwood Cornus florida 50% Color 39.164300000000000 -86.526900000000000 6197
Fri Apr 17 00:00:00 GMT 2009 cory Flowering dogwood Cornus florida First Leaf 38.990000000000000 -77.080000000000000 6265
Sun Mar 22 00:00:00 GMT 2009 anonymous Flowering dogwood Cornus florida First Leaf 39.170600000000000 -86.512500000000000 6096
Sun Mar 29 00:00:00 GMT 2009 anonymous Flowering dogwood Cornus florida All Leaves Unfolded 39.170600000000000 -86.512500000000000 6097
Sun Mar 01 00:00:00 GMT 2009 anonymous Flowering dogwood Cornus florida First Flower 39.170600000000000 -86.512500000000000 6098
Fri Apr 17 00:00:00 GMT 2009 jenulsh@northhempstead.com Flowering dogwood Cornus florida First Leaf 40.705500000000000 -73.448900000000000 6382
Fri Apr 17 00:00:00 GMT 2009 jenulsh@northhempstead.com Flowering dogwood Cornus florida First Leaf 40.705500000000000 -73.448900000000000 6383
Fri Apr 17 00:00:00 GMT 2009 anonymous Flowering dogwood Cornus florida First Flower 39.000000000000000 -86.000000000000000 6369
Tue Apr 07 00:00:00 GMT 2009 davisse Flowering dogwood Cornus florida First Leaf 39.160000000000000 -86.490000000000000 6301
Fri Apr 17 00:00:00 GMT 2009 International School of Chapel Hill Flowering dogwood Cornus florida Full Flower 35.933900000000000 -79.009200000000000 6371
Mon Mar 16 00:00:00 GMT 2009 maryfryan Flowering dogwood Cornus florida First Leaf 32.586500000000000 -96.756300000000000 6502
Thu Apr 02 00:00:00 GMT 2009 maryfryan Flowering dogwood Cornus florida All Leaves Unfolded 32.586500000000000 -96.756300000000000 6503
Sun Apr 19 00:00:00 GMT 2009 anonymous Flowering dogwood Cornus florida Full Flower 39.012800000000000 -121.069000000000000 6508
Wed Apr 22 00:00:00 GMT 2009 szurolo Flowering dogwood Cornus florida First Leaf 41.262500000000000 -73.073900000000000 6520
Mon Apr 20 00:00:00 GMT 2009 chagen Flowering dogwood Cornus florida First Flower 40.165600000000000 -75.227200000000000 6480
Fri Apr 24 00:00:00 GMT 2009 KELLEYS ISLAND Flowering dogwood Cornus florida First Flower 41.473400000000000 -81.802500000000000 6662
Thu Apr 16 00:00:00 GMT 2009 kathyfell Flowering dogwood Cornus florida First Leaf 36.765900000000000 -79.965800000000000 6669
Fri Apr 24 00:00:00 GMT 2009 kathyfell Flowering dogwood Cornus florida All Leaves Unfolded 36.765900000000000 -79.965800000000000 6670
Sun Apr 26 00:00:00 GMT 2009 kathyfell Flowering dogwood Cornus florida First Flower 36.765900000000000 -79.965800000000000 6671
Sat Apr 25 00:00:00 GMT 2009 szurolo Flowering dogwood Cornus florida All Leaves Unfolded 41.262500000000000 -73.073900000000000 6647
Mon Mar 09 00:00:00 GMT 2009 anonymous Flowering dogwood Cornus florida First Leaf 39.180000000000000 -86.550000000000000 6733
Mon Mar 23 00:00:00 GMT 2009 anonymous Flowering dogwood Cornus florida All Leaves Unfolded 39.180000000000000 -86.550000000000000 6734
Mon Mar 23 00:00:00 GMT 2009 anonymous Flowering dogwood Cornus florida First Flower 39.180000000000000 -86.550000000000000 6735
Mon Mar 30 00:00:00 GMT 2009 anonymous Flowering dogwood Cornus florida Full Flower 39.180000000000000 -86.550000000000000 6736
Mon Mar 30 00:00:00 GMT 2009 anonymous Flowering dogwood Cornus florida End of Flowering 39.180000000000000 -86.550000000000000 6737
Mon Mar 30 00:00:00 GMT 2009 anonymous Flowering dogwood Cornus florida First Ripe Fruit 39.180000000000000 -86.550000000000000 6738
Tue Apr 28 00:00:00 GMT 2009 kathyfell Flowering dogwood Cornus florida Full Flower 36.765900000000000 -79.965800000000000 6721
Tue Apr 28 00:00:00 GMT 2009 szurolo Flowering dogwood Cornus florida First Flower 41.262500000000000 -73.073900000000000 6757
Sat Apr 25 00:00:00 GMT 2009 leeandbarbara@verizon.net Flowering dogwood Cornus florida First Leaf 40.230800000000000 -74.017800000000000 6801
Wed Apr 29 00:00:00 GMT 2009 leeandbarbara@verizon.net Flowering dogwood Cornus florida All Leaves Unfolded 40.230800000000000 -74.017800000000000 6802
Fri Apr 24 00:00:00 GMT 2009 leeandbarbara@verizon.net Flowering dogwood Cornus florida First Flower 40.230800000000000 -74.017800000000000 6803
Mon Apr 27 00:00:00 GMT 2009 leeandbarbara@verizon.net Flowering dogwood Cornus florida Full Flower 40.230800000000000 -74.017800000000000 6804
Sat Apr 25 00:00:00 GMT 2009 leeandbarbara@verizon.net Flowering dogwood Cornus florida First Leaf 40.230800000000000 -74.017800000000000 6797
Wed Apr 29 00:00:00 GMT 2009 leeandbarbara@verizon.net Flowering dogwood Cornus florida All Leaves Unfolded 40.230800000000000 -74.017800000000000 6798
Fri Apr 24 00:00:00 GMT 2009 leeandbarbara@verizon.net Flowering dogwood Cornus florida First Flower 40.230800000000000 -74.017800000000000 6799
Mon Apr 27 00:00:00 GMT 2009 leeandbarbara@verizon.net Flowering dogwood Cornus florida Full Flower 40.230800000000000 -74.017800000000000 6800
Wed Apr 29 00:00:00 GMT 2009 szurolo Flowering dogwood Cornus florida Full Flower 41.262500000000000 -73.073900000000000 6805
Sun Apr 26 00:00:00 GMT 2009 momck Flowering dogwood Cornus florida First Flower 40.064400000000000 -80.717900000000000 6761
Tue Apr 28 00:00:00 GMT 2009 anonymous Flowering dogwood Cornus florida First Leaf 42.969800000000000 -85.692500000000000 6903
Fri May 01 00:00:00 GMT 2009 debeagle1 Flowering dogwood Cornus florida 50% Leaf Fall 35.860500000000000 -83.953400000000000 6906
Fri May 01 00:00:00 GMT 2009 compobs Flowering dogwood Cornus florida First Leaf 45.379400000000000 -93.076700000000000 6932
Mon May 04 00:00:00 GMT 2009 kathyfell Flowering dogwood Cornus florida End of Flowering 36.765900000000000 -79.965800000000000 6937
Sun Apr 19 00:00:00 GMT 2009 anonymous Flowering dogwood Cornus florida First Flower 38.863500000000000 -77.299300000000000 7134
Tue Apr 14 00:00:00 GMT 2009 anonymous Flowering dogwood Cornus florida First Leaf 39.827000000000000 -75.614600000000000 7208
Sat Apr 18 00:00:00 GMT 2009 anonymous Flowering dogwood Cornus florida All Leaves Unfolded 39.827000000000000 -75.614600000000000 7209
Fri Apr 24 00:00:00 GMT 2009 anonymous Flowering dogwood Cornus florida First Flower 39.827000000000000 -75.614600000000000 7210
Fri May 01 00:00:00 GMT 2009 anonymous Flowering dogwood Cornus florida Full Flower 39.827000000000000 -75.614600000000000 7211
Thu Feb 26 00:00:00 GMT 2009 Schulz yard Flowering dogwood Cornus florida First Leaf 34.788400000000000 -92.405400000000000 7265
Sat Mar 07 00:00:00 GMT 2009 Schulz yard Flowering dogwood Cornus florida All Leaves Unfolded 34.788400000000000 -92.405400000000000 7266
Sun Mar 15 00:00:00 GMT 2009 Schulz yard Flowering dogwood Cornus florida First Flower 34.788400000000000 -92.405400000000000 7267
Thu Apr 23 00:00:00 GMT 2009 Schulz yard Flowering dogwood Cornus florida Full Flower 34.788400000000000 -92.405400000000000 7268
Fri May 01 00:00:00 GMT 2009 Schulz yard Flowering dogwood Cornus florida End of Flowering 34.788400000000000 -92.405400000000000 7269
Mon Mar 16 00:00:00 GMT 2009 N R Gates Flowering dogwood Cornus florida First Leaf 31.983800000000000 -95.334300000000000 7383
Mon Mar 09 00:00:00 GMT 2009 N R Gates Flowering dogwood Cornus florida First Flower 31.983800000000000 -95.334300000000000 7384
Wed Mar 11 00:00:00 GMT 2009 N R Gates Flowering dogwood Cornus florida Full Flower 31.983800000000000 -95.334300000000000 7385
Sat Mar 14 00:00:00 GMT 2009 anonymous Flowering dogwood Cornus florida First Leaf 35.150000000000000 -80.800000000000000 7413
Mon Mar 16 00:00:00 GMT 2009 anonymous Flowering dogwood Cornus florida All Leaves Unfolded 35.150000000000000 -80.800000000000000 7414
Tue Mar 17 00:00:00 GMT 2009 anonymous Flowering dogwood Cornus florida First Flower 35.150000000000000 -80.800000000000000 7415
Wed Mar 18 00:00:00 GMT 2009 anonymous Flowering dogwood Cornus florida Full Flower 35.150000000000000 -80.800000000000000 7416
Fri Mar 20 00:00:00 GMT 2009 anonymous Flowering dogwood Cornus florida End of Flowering 35.150000000000000 -80.800000000000000 7417
Thu Mar 26 00:00:00 GMT 2009 anonymous Flowering dogwood Cornus florida First Ripe Fruit 35.150000000000000 -80.800000000000000 7418
Mon Mar 30 00:00:00 GMT 2009 anonymous Flowering dogwood Cornus florida 50% Color 35.150000000000000 -80.800000000000000 7419
Mon Apr 06 00:00:00 GMT 2009 anonymous Flowering dogwood Cornus florida 50% Leaf Fall 35.150000000000000 -80.800000000000000 7420
Tue May 12 00:00:00 GMT 2009 jimmyallen Flowering dogwood Cornus florida First Flower 42.969800000000000 -85.692500000000000 7435
Sat Apr 04 00:00:00 GMT 2009 anonymous Flowering dogwood Cornus florida First Leaf 35.092500000000000 -80.484100000000000 7441
Tue Apr 14 00:00:00 GMT 2009 anonymous Flowering dogwood Cornus florida All Leaves Unfolded 35.092500000000000 -80.484100000000000 7442
Sat Mar 14 00:00:00 GMT 2009 anonymous Flowering dogwood Cornus florida First Flower 35.092500000000000 -80.484100000000000 7443
Fri Mar 20 00:00:00 GMT 2009 anonymous Flowering dogwood Cornus florida Full Flower 35.092500000000000 -80.484100000000000 7444
Mon Mar 30 00:00:00 GMT 2009 anonymous Flowering dogwood Cornus florida End of Flowering 35.092500000000000 -80.484100000000000 7445
Mon May 04 00:00:00 GMT 2009 clehn Flowering dogwood Cornus florida All Leaves Unfolded 41.512000000000000 -81.610400000000000 7461
Wed May 06 00:00:00 GMT 2009 clehn Flowering dogwood Cornus florida First Flower 41.512000000000000 -81.610400000000000 7462
Sat May 16 00:00:00 GMT 2009 robs57 Flowering dogwood Cornus florida End of Flowering 39.186300000000000 -76.838500000000000 7578
Fri May 01 00:00:00 GMT 2009 momck Flowering dogwood Cornus florida First Leaf 40.064400000000000 -80.717900000000000 7612
Wed May 13 00:00:00 GMT 2009 momck Flowering dogwood Cornus florida All Leaves Unfolded 40.064400000000000 -80.717900000000000 7613
Sun May 03 00:00:00 GMT 2009 klanderson Flowering dogwood Cornus florida End of Flowering 38.636800000000000 -76.606500000000000 7643
Mon May 18 00:00:00 GMT 2009 jimmyallen Flowering dogwood Cornus florida All Leaves Unfolded 42.969800000000000 -85.692500000000000 7919
Tue May 05 00:00:00 GMT 2009 jimmyallen Flowering dogwood Cornus florida Full Flower 42.969800000000000 -85.692500000000000 7920
Thu May 14 00:00:00 GMT 2009 jimmyallen Flowering dogwood Cornus florida End of Flowering 42.969800000000000 -85.692500000000000 7921
Tue May 26 00:00:00 GMT 2009 anonymous Flowering dogwood Cornus florida First Leaf 43.238700000000000 -70.814000000000000 8033
Tue Apr 14 00:00:00 GMT 2009 KShaw Flowering dogwood Cornus florida First Leaf 38.926500000000000 -77.339500000000000 8057
Mon Apr 20 00:00:00 GMT 2009 KShaw Flowering dogwood Cornus florida All Leaves Unfolded 38.926500000000000 -77.339500000000000 8058
Sat Apr 25 00:00:00 GMT 2009 KShaw Flowering dogwood Cornus florida First Flower 38.926500000000000 -77.339500000000000 8059
Mon Apr 27 00:00:00 GMT 2009 KShaw Flowering dogwood Cornus florida Full Flower 38.926500000000000 -77.339500000000000 8060
Wed May 06 00:00:00 GMT 2009 KShaw Flowering dogwood Cornus florida End of Flowering 38.926500000000000 -77.339500000000000 8061
Fri May 01 00:00:00 GMT 2009 jwiley Flowering dogwood Cornus florida First Leaf 42.052200000000000 -76.064500000000000 8115
Fri May 15 00:00:00 GMT 2009 jwiley Flowering dogwood Cornus florida All Leaves Unfolded 42.052200000000000 -76.064500000000000 8116
Sun Apr 26 00:00:00 GMT 2009 jwiley Flowering dogwood Cornus florida First Flower 42.052200000000000 -76.064500000000000 8117
Wed May 20 00:00:00 GMT 2009 jwiley Flowering dogwood Cornus florida Full Flower 42.052200000000000 -76.064500000000000 8118
Sun May 24 00:00:00 GMT 2009 jwiley Flowering dogwood Cornus florida End of Flowering 42.052200000000000 -76.064500000000000 8119
Fri May 29 00:00:00 GMT 2009 blynnj Flowering dogwood Cornus florida First Leaf 43.236500000000000 -70.811700000000000 8137
Tue Jun 02 00:00:00 GMT 2009 blynnj Flowering dogwood Cornus florida All Leaves Unfolded 43.236500000000000 -70.811700000000000 8138
Sat May 30 00:00:00 GMT 2009 compobs Flowering dogwood Cornus florida First Flower 45.379400000000000 -93.076700000000000 8257
Mon Jun 01 00:00:00 GMT 2009 compobs Flowering dogwood Cornus florida Full Flower 45.379400000000000 -93.076700000000000 8258
Tue Sep 01 00:00:00 GMT 2009 momck Flowering dogwood Cornus florida 50% Color 40.064400000000000 -80.717900000000000 8593
Sun Apr 19 00:00:00 GMT 2009 plants Flowering dogwood Cornus florida First Leaf 38.883800000000000 -77.241900000000000 8595
Wed Apr 22 00:00:00 GMT 2009 plants Flowering dogwood Cornus florida All Leaves Unfolded 38.883800000000000 -77.241900000000000 8596
Thu Apr 09 00:00:00 GMT 2009 plants Flowering dogwood Cornus florida First Flower 38.883800000000000 -77.241900000000000 8597
Fri Apr 17 00:00:00 GMT 2009 plants Flowering dogwood Cornus florida Full Flower 38.883800000000000 -77.241900000000000 8598
Wed Sep 09 00:00:00 GMT 2009 plants Flowering dogwood Cornus florida 50% Color 38.883800000000000 -77.241900000000000 8599
Thu Sep 10 00:00:00 GMT 2009 jwiley Flowering dogwood Cornus florida First Ripe Fruit 42.052200000000000 -76.064500000000000 8604
Sat Oct 10 00:00:00 GMT 2009 spaceshiprepairman Flowering dogwood Cornus florida 50% Leaf Fall 36.976200000000000 -85.572900000000000 8767
Wed Apr 22 00:00:00 GMT 2009 anonymous Flowering dogwood Cornus florida First Leaf 39.066800000000000 -76.996900000000000 9016
Thu Sep 17 00:00:00 GMT 2009 anonymous Flowering dogwood Cornus florida First Ripe Fruit 39.066800000000000 -76.996900000000000 9017
Sat Mar 27 00:00:00 GMT 2010 Tasha.Berg Flowering dogwood Cornus florida First Leaf 37.541100000000000 -77.536400000000000 9322
Wed Mar 31 00:00:00 GMT 2010 Georgiaberry Flowering dogwood Cornus florida Full Flower 33.153700000000000 -93.504100000000000 9344
Fri Mar 05 00:00:00 GMT 2010 leelee2j Flowering dogwood Cornus florida First Leaf 39.106600000000000 -86.582000000000000 9422
Fri Mar 19 00:00:00 GMT 2010 leelee2j Flowering dogwood Cornus florida All Leaves Unfolded 39.106600000000000 -86.582000000000000 9423
Fri Apr 02 00:00:00 GMT 2010 leelee2j Flowering dogwood Cornus florida First Flower 39.106600000000000 -86.582000000000000 9424
Sun Apr 04 00:00:00 GMT 2010 cory Flowering dogwood Cornus florida First Leaf 38.990000000000000 -77.080000000000000 9419
Mon Apr 05 00:00:00 GMT 2010 anonymous Flowering dogwood Cornus florida First Flower 37.778800000000000 -87.151300000000000 9460
Mon Apr 05 00:00:00 GMT 2010 maryannbryant1@gmail.com Flowering dogwood Cornus florida First Flower 34.427100000000000 -84.299400000000000 9491
Thu Apr 01 00:00:00 GMT 2010 lamingtons Flowering dogwood Cornus florida First Leaf 33.991500000000000 -83.445300000000000 9547
Mon Apr 12 00:00:00 GMT 2010 lamingtons Flowering dogwood Cornus florida All Leaves Unfolded 33.991500000000000 -83.445300000000000 9548
Sat Apr 03 00:00:00 GMT 2010 lamingtons Flowering dogwood Cornus florida First Flower 33.991500000000000 -83.445300000000000 9549
Mon Apr 05 00:00:00 GMT 2010 lamingtons Flowering dogwood Cornus florida Full Flower 33.991500000000000 -83.445300000000000 9550
Wed Mar 24 00:00:00 GMT 2010 anonymous Flowering dogwood Cornus florida First Leaf 39.164200000000000 -86.522500000000000 9571
Tue Apr 13 00:00:00 GMT 2010 anonymous Flowering dogwood Cornus florida All Leaves Unfolded 39.164200000000000 -86.522500000000000 9572
Wed Mar 24 00:00:00 GMT 2010 anonymous Flowering dogwood Cornus florida First Flower 39.164200000000000 -86.522500000000000 9573
Tue Apr 13 00:00:00 GMT 2010 anonymous Flowering dogwood Cornus florida Full Flower 39.164200000000000 -86.522500000000000 9574
Fri Mar 26 00:00:00 GMT 2010 esrodon Flowering dogwood Cornus florida First Leaf 39.168100000000000 -86.516100000000000 9615
Tue Mar 30 00:00:00 GMT 2010 esrodon Flowering dogwood Cornus florida All Leaves Unfolded 39.168100000000000 -86.516100000000000 9616
Thu Apr 01 00:00:00 GMT 2010 esrodon Flowering dogwood Cornus florida First Flower 39.168100000000000 -86.516100000000000 9617
Mon Apr 05 00:00:00 GMT 2010 esrodon Flowering dogwood Cornus florida Full Flower 39.168100000000000 -86.516100000000000 9618
Sat Apr 10 00:00:00 GMT 2010 esrodon Flowering dogwood Cornus florida End of Flowering 39.168100000000000 -86.516100000000000 9619
Fri Mar 26 00:00:00 GMT 2010 cndonoghue Flowering dogwood Cornus florida First Leaf 39.168100000000000 -86.516100000000000 9610
Tue Mar 30 00:00:00 GMT 2010 cndonoghue Flowering dogwood Cornus florida All Leaves Unfolded 39.168100000000000 -86.516100000000000 9611
Thu Apr 01 00:00:00 GMT 2010 cndonoghue Flowering dogwood Cornus florida First Flower 39.168100000000000 -86.516100000000000 9612
Mon Apr 05 00:00:00 GMT 2010 cndonoghue Flowering dogwood Cornus florida Full Flower 39.168100000000000 -86.516100000000000 9613
Sat Apr 10 00:00:00 GMT 2010 cndonoghue Flowering dogwood Cornus florida End of Flowering 39.168100000000000 -86.516100000000000 9614
Fri Mar 12 00:00:00 GMT 2010 anonymous Flowering dogwood Cornus florida First Leaf 39.800000000000000 -86.370000000000000 9629
Wed Mar 31 00:00:00 GMT 2010 anonymous Flowering dogwood Cornus florida All Leaves Unfolded 39.800000000000000 -86.370000000000000 9630
Tue Apr 13 00:00:00 GMT 2010 anonymous Flowering dogwood Cornus florida Full Flower 39.800000000000000 -86.370000000000000 9631
Wed Mar 31 00:00:00 GMT 2010 anonymous Flowering dogwood Cornus florida All Leaves Unfolded 39.800000000000000 -86.370000000000000 9632
Tue Apr 13 00:00:00 GMT 2010 anonymous Flowering dogwood Cornus florida Full Flower 39.800000000000000 -86.370000000000000 9633
Wed Mar 10 00:00:00 GMT 2010 anonymous Flowering dogwood Cornus florida First Leaf 39.100000000000000 -86.500000000000000 9661
Thu Mar 18 00:00:00 GMT 2010 anonymous Flowering dogwood Cornus florida All Leaves Unfolded 39.100000000000000 -86.500000000000000 9662
Tue Mar 30 00:00:00 GMT 2010 anonymous Flowering dogwood Cornus florida First Flower 39.100000000000000 -86.500000000000000 9663
Wed Mar 10 00:00:00 GMT 2010 anonymous Flowering dogwood Cornus florida First Leaf 39.100000000000000 -86.500000000000000 9658
Thu Mar 18 00:00:00 GMT 2010 anonymous Flowering dogwood Cornus florida All Leaves Unfolded 39.100000000000000 -86.500000000000000 9659
Tue Mar 30 00:00:00 GMT 2010 anonymous Flowering dogwood Cornus florida First Flower 39.100000000000000 -86.500000000000000 9660
Tue Mar 16 00:00:00 GMT 2010 anonymous Flowering dogwood Cornus florida First Leaf 39.168100000000000 -86.516100000000000 9740
Fri Mar 19 00:00:00 GMT 2010 anonymous Flowering dogwood Cornus florida All Leaves Unfolded 39.168100000000000 -86.516100000000000 9741
Sun Apr 04 00:00:00 GMT 2010 anonymous Flowering dogwood Cornus florida First Flower 39.168100000000000 -86.516100000000000 9742
Mon Apr 05 00:00:00 GMT 2010 anonymous Flowering dogwood Cornus florida Full Flower 39.168100000000000 -86.516100000000000 9743
Mon Apr 12 00:00:00 GMT 2010 anonymous Flowering dogwood Cornus florida End of Flowering 39.168100000000000 -86.516100000000000 9744
Thu Mar 11 00:00:00 GMT 2010 anonymous Flowering dogwood Cornus florida First Leaf 39.172600000000000 -86.530900000000000 9753
Tue Apr 06 00:00:00 GMT 2010 anonymous Flowering dogwood Cornus florida All Leaves Unfolded 39.172600000000000 -86.530900000000000 9754
Thu Mar 11 00:00:00 GMT 2010 anonymous Flowering dogwood Cornus florida First Flower 39.172600000000000 -86.530900000000000 9755
Tue Apr 06 00:00:00 GMT 2010 anonymous Flowering dogwood Cornus florida Full Flower 39.172600000000000 -86.530900000000000 9756
Tue Apr 06 00:00:00 GMT 2010 anonymous Flowering dogwood Cornus florida First Ripe Fruit 39.172600000000000 -86.530900000000000 9757
Tue Apr 06 00:00:00 GMT 2010 anonymous Flowering dogwood Cornus florida 50% Color 39.172600000000000 -86.530900000000000 9758
Fri Mar 12 00:00:00 GMT 2010 cndonoghue Flowering dogwood Cornus florida First Leaf 39.168100000000000 -86.516100000000000 9780
Fri Apr 02 00:00:00 GMT 2010 cndonoghue Flowering dogwood Cornus florida All Leaves Unfolded 39.168100000000000 -86.516100000000000 9781
Sun Apr 04 00:00:00 GMT 2010 cndonoghue Flowering dogwood Cornus florida First Flower 39.168100000000000 -86.516100000000000 9782
Thu Apr 08 00:00:00 GMT 2010 cndonoghue Flowering dogwood Cornus florida Full Flower 39.168100000000000 -86.516100000000000 9783
Wed Apr 14 00:00:00 GMT 2010 cndonoghue Flowering dogwood Cornus florida End of Flowering 39.168100000000000 -86.516100000000000 9784
Sun Mar 07 00:00:00 GMT 2010 anonymous Flowering dogwood Cornus florida First Leaf 39.187900000000000 -86.534000000000000 9785
Sun Mar 21 00:00:00 GMT 2010 anonymous Flowering dogwood Cornus florida All Leaves Unfolded 39.187900000000000 -86.534000000000000 9786
Sun Mar 21 00:00:00 GMT 2010 anonymous Flowering dogwood Cornus florida First Flower 39.187900000000000 -86.534000000000000 9787
Sun Apr 04 00:00:00 GMT 2010 anonymous Flowering dogwood Cornus florida Full Flower 39.187900000000000 -86.534000000000000 9788
Mon Mar 15 00:00:00 GMT 2010 anonymous Flowering dogwood Cornus florida First Leaf 39.184000000000000 -86.516900000000000 9805
Fri Mar 19 00:00:00 GMT 2010 anonymous Flowering dogwood Cornus florida All Leaves Unfolded 39.184000000000000 -86.516900000000000 9806
Fri Apr 02 00:00:00 GMT 2010 anonymous Flowering dogwood Cornus florida First Flower 39.184000000000000 -86.516900000000000 9807
Fri Apr 02 00:00:00 GMT 2010 anonymous Flowering dogwood Cornus florida Full Flower 39.184000000000000 -86.516900000000000 9808
Tue Apr 13 00:00:00 GMT 2010 anonymous Flowering dogwood Cornus florida End of Flowering 39.184000000000000 -86.516900000000000 9809
Fri Apr 02 00:00:00 GMT 2010 anonymous Flowering dogwood Cornus florida 50% Color 39.184000000000000 -86.516900000000000 9810
Tue Mar 16 00:00:00 GMT 2010 anonymous Flowering dogwood Cornus florida First Leaf 39.168100000000000 -86.516100000000000 9793
Fri Mar 19 00:00:00 GMT 2010 anonymous Flowering dogwood Cornus florida All Leaves Unfolded 39.168100000000000 -86.516100000000000 9794
Wed Apr 07 00:00:00 GMT 2010 anonymous Flowering dogwood Cornus florida First Flower 39.168100000000000 -86.516100000000000 9795
Fri Apr 09 00:00:00 GMT 2010 anonymous Flowering dogwood Cornus florida Full Flower 39.168100000000000 -86.516100000000000 9796
Mon Apr 12 00:00:00 GMT 2010 anonymous Flowering dogwood Cornus florida End of Flowering 39.168100000000000 -86.516100000000000 9797
Fri Mar 05 00:00:00 GMT 2010 anonymous Flowering dogwood Cornus florida First Leaf 39.183800000000000 -86.516900000000000 9811
Fri Mar 19 00:00:00 GMT 2010 anonymous Flowering dogwood Cornus florida All Leaves Unfolded 39.183800000000000 -86.516900000000000 9812
Fri Apr 02 00:00:00 GMT 2010 anonymous Flowering dogwood Cornus florida First Flower 39.183800000000000 -86.516900000000000 9813
Fri Apr 02 00:00:00 GMT 2010 anonymous Flowering dogwood Cornus florida Full Flower 39.183800000000000 -86.516900000000000 9814
Tue Apr 13 00:00:00 GMT 2010 anonymous Flowering dogwood Cornus florida End of Flowering 39.183800000000000 -86.516900000000000 9815
Fri Apr 02 00:00:00 GMT 2010 anonymous Flowering dogwood Cornus florida 50% Color 39.183800000000000 -86.516900000000000 9816
Mon Mar 08 00:00:00 GMT 2010 anonymous Flowering dogwood Cornus florida First Leaf 39.165300000000000 -86.526400000000000 9838
Mon Mar 22 00:00:00 GMT 2010 anonymous Flowering dogwood Cornus florida All Leaves Unfolded 39.165300000000000 -86.526400000000000 9839
Mon Apr 05 00:00:00 GMT 2010 anonymous Flowering dogwood Cornus florida First Flower 39.165300000000000 -86.526400000000000 9840
Thu Mar 11 00:00:00 GMT 2010 anonymous Flowering dogwood Cornus florida First Leaf 39.172600000000000 -86.530900000000000 9862
Tue Apr 06 00:00:00 GMT 2010 anonymous Flowering dogwood Cornus florida All Leaves Unfolded 39.172600000000000 -86.530900000000000 9863
Tue Apr 06 00:00:00 GMT 2010 anonymous Flowering dogwood Cornus florida First Flower 39.172600000000000 -86.530900000000000 9864
Tue Apr 06 00:00:00 GMT 2010 anonymous Flowering dogwood Cornus florida Full Flower 39.172600000000000 -86.530900000000000 9865
Tue Apr 06 00:00:00 GMT 2010 anonymous Flowering dogwood Cornus florida First Ripe Fruit 39.172600000000000 -86.530900000000000 9866
Tue Apr 06 00:00:00 GMT 2010 anonymous Flowering dogwood Cornus florida 50% Color 39.172600000000000 -86.530900000000000 9867
Mon Mar 08 00:00:00 GMT 2010 anonymous Flowering dogwood Cornus florida First Leaf 39.165300000000000 -86.526400000000000 9858
Thu Apr 08 00:00:00 GMT 2010 anonymous Flowering dogwood Cornus florida All Leaves Unfolded 39.165300000000000 -86.526400000000000 9859
Mon Mar 01 00:00:00 GMT 2010 anonymous Flowering dogwood Cornus florida First Flower 39.165300000000000 -86.526400000000000 9860
Mon Mar 08 00:00:00 GMT 2010 anonymous Flowering dogwood Cornus florida Full Flower 39.165300000000000 -86.526400000000000 9861
Tue Apr 06 00:00:00 GMT 2010 Jingles Flowering dogwood Cornus florida First Leaf 39.826100000000000 -75.615600000000000 9956
Sat Apr 10 00:00:00 GMT 2010 Jingles Flowering dogwood Cornus florida All Leaves Unfolded 39.826100000000000 -75.615600000000000 9957
Thu Apr 08 00:00:00 GMT 2010 Jingles Flowering dogwood Cornus florida First Flower 39.826100000000000 -75.615600000000000 9958
Fri Apr 09 00:00:00 GMT 2010 Jingles Flowering dogwood Cornus florida Full Flower 39.826100000000000 -75.615600000000000 9959
Sat Mar 13 00:00:00 GMT 2010 lenoremartin Flowering dogwood Cornus florida First Leaf 35.913200000000000 -79.055800000000000 9983
Sat Mar 27 00:00:00 GMT 2010 lenoremartin Flowering dogwood Cornus florida All Leaves Unfolded 35.913200000000000 -79.055800000000000 9984
Mon Apr 05 00:00:00 GMT 2010 lenoremartin Flowering dogwood Cornus florida First Flower 35.913200000000000 -79.055800000000000 9985
Mon Apr 12 00:00:00 GMT 2010 lenoremartin Flowering dogwood Cornus florida Full Flower 35.913200000000000 -79.055800000000000 9986
Tue Apr 20 00:00:00 GMT 2010 lenoremartin Flowering dogwood Cornus florida End of Flowering 35.913200000000000 -79.055800000000000 9987
Mon Apr 12 00:00:00 GMT 2010 cory Flowering dogwood Cornus florida First Flower 38.990000000000000 -77.080000000000000 10016
Mon Apr 12 00:00:00 GMT 2010 cory Flowering dogwood Cornus florida First Flower 38.990000000000000 -77.080000000000000 10019
Sat Mar 27 00:00:00 GMT 2010 boggs11 Flowering dogwood Cornus florida First Leaf 37.559100000000000 -79.084300000000000 10036
Tue Apr 13 00:00:00 GMT 2010 boggs11 Flowering dogwood Cornus florida All Leaves Unfolded 37.559100000000000 -79.084300000000000 10037
Mon Mar 29 00:00:00 GMT 2010 boggs11 Flowering dogwood Cornus florida First Flower 37.559100000000000 -79.084300000000000 10038
Wed Apr 21 00:00:00 GMT 2010 lleavell Flowering dogwood Cornus florida End of Flowering 33.933600000000000 -83.377600000000000 10066
Thu Mar 25 00:00:00 GMT 2010 anonymous Flowering dogwood Cornus florida First Leaf 36.924800000000000 -80.020900000000000 10508
Fri Apr 02 00:00:00 GMT 2010 anonymous Flowering dogwood Cornus florida First Flower 36.924800000000000 -80.020900000000000 10509
Mon Apr 19 00:00:00 GMT 2010 anonymous Flowering dogwood Cornus florida Full Flower 36.924800000000000 -80.020900000000000 10510
Mon Mar 29 00:00:00 GMT 2010 anonymous Flowering dogwood Cornus florida First Flower 36.925000000000000 -80.021400000000000 10502
Sat Apr 03 00:00:00 GMT 2010 anonymous Flowering dogwood Cornus florida Full Flower 36.925000000000000 -80.021400000000000 10503
Thu Apr 08 00:00:00 GMT 2010 anonymous Flowering dogwood Cornus florida End of Flowering 36.925000000000000 -80.021400000000000 10504
Sat Mar 27 00:00:00 GMT 2010 anonymous Flowering dogwood Cornus florida First Leaf 35.078700000000000 -80.783000000000000 10582
Tue Mar 30 00:00:00 GMT 2010 anonymous Flowering dogwood Cornus florida All Leaves Unfolded 35.078700000000000 -80.783000000000000 10583
Sun Apr 04 00:00:00 GMT 2010 Jingles Flowering dogwood Cornus florida First Leaf 39.826100000000000 -75.615600000000000 10796
Sat Apr 17 00:00:00 GMT 2010 Jingles Flowering dogwood Cornus florida All Leaves Unfolded 39.826100000000000 -75.615600000000000 10797
Sun Apr 25 00:00:00 GMT 2010 Jingles Flowering dogwood Cornus florida First Flower 39.826100000000000 -75.615600000000000 10798
Sat May 15 00:00:00 GMT 2010 Jingles Flowering dogwood Cornus florida End of Flowering 39.826100000000000 -75.615600000000000 10799
Wed Apr 07 00:00:00 GMT 2010 KShaw Flowering dogwood Cornus florida First Leaf 38.926500000000000 -77.339500000000000 10996
Sat Apr 10 00:00:00 GMT 2010 KShaw Flowering dogwood Cornus florida All Leaves Unfolded 38.926500000000000 -77.339500000000000 10997
Fri Apr 02 00:00:00 GMT 2010 SusannahPrindle Flowering dogwood Cornus florida First Leaf 39.096700000000000 -77.023900000000000 11080
Mon Apr 12 00:00:00 GMT 2010 SusannahPrindle Flowering dogwood Cornus florida All Leaves Unfolded 39.096700000000000 -77.023900000000000 11081
Tue Apr 06 00:00:00 GMT 2010 SusannahPrindle Flowering dogwood Cornus florida Full Flower 39.096700000000000 -77.023900000000000 11082
Mon Apr 26 00:00:00 GMT 2010 SusannahPrindle Flowering dogwood Cornus florida End of Flowering 39.096700000000000 -77.023900000000000 11083
Sat Apr 17 00:00:00 GMT 2010 vanndawn Flowering dogwood Cornus florida First Flower 38.996400000000000 -92.613100000000000 11306
Mon May 03 00:00:00 GMT 2010 vanndawn Flowering dogwood Cornus florida End of Flowering 38.996400000000000 -92.613100000000000 11307
Sun Apr 26 00:00:00 GMT 2009 vanndawn Flowering dogwood Cornus florida First Leaf 38.996400000000000 -92.613100000000000 11302
Thu Apr 23 00:00:00 GMT 2009 vanndawn Flowering dogwood Cornus florida First Flower 38.996400000000000 -92.613100000000000 11303
Sat May 09 00:00:00 GMT 2009 vanndawn Flowering dogwood Cornus florida End of Flowering 38.996400000000000 -92.613100000000000 11304
Sun Sep 06 00:00:00 GMT 2009 vanndawn Flowering dogwood Cornus florida First Ripe Fruit 38.996400000000000 -92.613100000000000 11305
Sun Apr 11 00:00:00 GMT 2010 anonymous Flowering dogwood Cornus florida First Leaf 41.423800000000000 -81.421300000000000 11345
Mon May 03 00:00:00 GMT 2010 anonymous Flowering dogwood Cornus florida All Leaves Unfolded 41.423800000000000 -81.421300000000000 11346
Wed Apr 28 00:00:00 GMT 2010 anonymous Flowering dogwood Cornus florida First Flower 41.423800000000000 -81.421300000000000 11347
Mon May 10 00:00:00 GMT 2010 anonymous Flowering dogwood Cornus florida Full Flower 41.423800000000000 -81.421300000000000 11348
Sun May 16 00:00:00 GMT 2010 anonymous Flowering dogwood Cornus florida End of Flowering 41.423800000000000 -81.421300000000000 11349
Tue Aug 17 00:00:00 GMT 2010 anonymous Flowering dogwood Cornus florida First Ripe Fruit 41.423800000000000 -81.421300000000000 11350
Thu Sep 16 00:00:00 GMT 2010 anonymous Flowering dogwood Cornus florida 50% Color 41.423800000000000 -81.421300000000000 11351
Tue Oct 12 00:00:00 GMT 2010 anonymous Flowering dogwood Cornus florida 50% Leaf Fall 41.423800000000000 -81.421300000000000 11352
Fri Apr 02 00:00:00 GMT 2010 SusannahPrindle Flowering dogwood Cornus florida First Leaf 39.096700000000000 -77.023900000000000 11633
Mon Apr 12 00:00:00 GMT 2010 SusannahPrindle Flowering dogwood Cornus florida All Leaves Unfolded 39.096700000000000 -77.023900000000000 11634
Tue Apr 06 00:00:00 GMT 2010 SusannahPrindle Flowering dogwood Cornus florida Full Flower 39.096700000000000 -77.023900000000000 11635
Mon Apr 26 00:00:00 GMT 2010 SusannahPrindle Flowering dogwood Cornus florida End of Flowering 39.096700000000000 -77.023900000000000 11636
Sun Oct 10 00:00:00 GMT 2010 SusannahPrindle Flowering dogwood Cornus florida 50% Color 39.096700000000000 -77.023900000000000 11637
Wed Nov 17 00:00:00 GMT 2010 SusannahPrindle Flowering dogwood Cornus florida 50% Leaf Fall 39.096700000000000 -77.023900000000000 11638
Mon Feb 21 00:00:00 GMT 2011 wieb0031 Flowering dogwood Cornus florida First Leaf 39.100000000000000 -86.300000000000000 11704
Tue Mar 01 00:00:00 GMT 2011 Tasha.Berg Flowering dogwood Cornus florida First Leaf 37.541100000000000 -77.536400000000000 11712
Thu Mar 03 00:00:00 GMT 2011 conraftery Flowering dogwood Cornus florida First Leaf 39.165300000000000 -86.526400000000000 11752
Tue Mar 22 00:00:00 GMT 2011 moranev Flowering dogwood Cornus florida First Flower 35.951300000000000 -83.948200000000000 11771
Tue Mar 15 00:00:00 GMT 2011 Tasha.Berg Flowering dogwood Cornus florida All Leaves Unfolded 37.541100000000000 -77.536400000000000 11756
Tue Mar 22 00:00:00 GMT 2011 Tasha.Berg Flowering dogwood Cornus florida First Flower 37.541100000000000 -77.536400000000000 11757
Tue Mar 22 00:00:00 GMT 2011 emarieqt315 Flowering dogwood Cornus florida First Leaf 35.167200000000000 -85.242100000000000 11775
Fri Mar 25 00:00:00 GMT 2011 Tasha.Berg Flowering dogwood Cornus florida Full Flower 37.541100000000000 -77.536400000000000 11810
Sat Apr 02 00:00:00 GMT 2011 Tasha.Berg Flowering dogwood Cornus florida Full Flower 37.541100000000000 -77.536400000000000 11848
Sun Apr 10 00:00:00 GMT 2011 beckyerick Flowering dogwood Cornus florida First Flower 38.745100000000000 -92.222600000000000 11873
Fri Mar 25 00:00:00 GMT 2011 carolmiserlian@yahoo.com Flowering dogwood Cornus florida First Leaf 30.946300000000000 -95.242900000000000 11881
Mon Apr 11 00:00:00 GMT 2011 carolmiserlian@yahoo.com Flowering dogwood Cornus florida All Leaves Unfolded 30.946300000000000 -95.242900000000000 11882
Tue Mar 15 00:00:00 GMT 2011 carolmiserlian@yahoo.com Flowering dogwood Cornus florida First Flower 30.946300000000000 -95.242900000000000 11883
Mon Mar 14 00:00:00 GMT 2011 carolmiserlian@yahoo.com Flowering dogwood Cornus florida Full Flower 30.946300000000000 -95.242900000000000 11884
Mon Apr 11 00:00:00 GMT 2011 msharasty Flowering dogwood Cornus florida First Flower 40.181400000000000 -74.219900000000000 11889
Sat Apr 02 00:00:00 GMT 2011 cummingl Flowering dogwood Cornus florida First Leaf 39.170700000000000 -86.520600000000000 11919
Sun Apr 10 00:00:00 GMT 2011 cummingl Flowering dogwood Cornus florida All Leaves Unfolded 39.170700000000000 -86.520600000000000 11920
Tue Mar 01 00:00:00 GMT 2011 ccdmrd Flowering dogwood Cornus florida First Leaf 39.168100000000000 -86.509500000000000 11939
Mon Mar 07 00:00:00 GMT 2011 ccdmrd Flowering dogwood Cornus florida All Leaves Unfolded 39.168100000000000 -86.509500000000000 11940
Mon Mar 21 00:00:00 GMT 2011 ccdmrd Flowering dogwood Cornus florida First Flower 39.168100000000000 -86.509500000000000 11941
Fri Apr 01 00:00:00 GMT 2011 ccdmrd Flowering dogwood Cornus florida Full Flower 39.168100000000000 -86.509500000000000 11942
Sat Apr 02 00:00:00 GMT 2011 cummingl Flowering dogwood Cornus florida 50% Color 39.170700000000000 -86.520600000000000 11969
Mon Feb 28 00:00:00 GMT 2011 mechoice Flowering dogwood Cornus florida First Leaf 39.170000000000000 -86.510000000000000 11993
Wed Mar 23 00:00:00 GMT 2011 mechoice Flowering dogwood Cornus florida First Flower 39.170000000000000 -86.510000000000000 11994
Tue Apr 12 00:00:00 GMT 2011 mechoice Flowering dogwood Cornus florida Full Flower 39.170000000000000 -86.510000000000000 11995
Wed Mar 30 00:00:00 GMT 2011 mechoice Flowering dogwood Cornus florida 50% Color 39.170000000000000 -86.510000000000000 11996
Mon Apr 11 00:00:00 GMT 2011 plants Flowering dogwood Cornus florida First Flower 38.883800000000000 -77.241900000000000 12049
Tue Apr 12 00:00:00 GMT 2011 plants Flowering dogwood Cornus florida Full Flower 38.883800000000000 -77.241900000000000 12050
Mon Apr 11 00:00:00 GMT 2011 sarepott Flowering dogwood Cornus florida First Leaf 39.171100000000000 -86.520400000000000 12045
Sun Apr 17 00:00:00 GMT 2011 mglade Flowering dogwood Cornus florida First Leaf 39.168200000000000 -86.493600000000000 12121
Tue Apr 12 00:00:00 GMT 2011 mglade Flowering dogwood Cornus florida First Flower 39.168200000000000 -86.493600000000000 12122
Sun Apr 17 00:00:00 GMT 2011 mglade Flowering dogwood Cornus florida Full Flower 39.168200000000000 -86.493600000000000 12123
Thu Apr 07 00:00:00 GMT 2011 wieb0031 Flowering dogwood Cornus florida First Leaf 39.100000000000000 -86.300000000000000 12120
Fri Apr 08 00:00:00 GMT 2011 brummela Flowering dogwood Cornus florida First Leaf 39.166800000000000 -86.526200000000000 12125
Mon Feb 28 00:00:00 GMT 2011 brummela Flowering dogwood Cornus florida 50% Leaf Fall 39.166800000000000 -86.526200000000000 12126
Thu Apr 15 00:00:00 GMT 2010 jdwhitfi Flowering dogwood Cornus florida First Flower 38.629200000000000 -86.458500000000000 12144
Fri Apr 01 00:00:00 GMT 2011 ausima Flowering dogwood Cornus florida First Leaf 39.018800000000000 -77.072500000000000 12149
Tue Apr 12 00:00:00 GMT 2011 ausima Flowering dogwood Cornus florida All Leaves Unfolded 39.018800000000000 -77.072500000000000 12150
Mon Apr 18 00:00:00 GMT 2011 ausima Flowering dogwood Cornus florida Full Flower 39.018800000000000 -77.072500000000000 12151
Mon Apr 04 00:00:00 GMT 2011 cory Flowering dogwood Cornus florida First Leaf 38.990000000000000 -77.080000000000000 12155
Sat Apr 16 00:00:00 GMT 2011 cory Flowering dogwood Cornus florida All Leaves Unfolded 38.990000000000000 -77.080000000000000 12156
Tue Apr 12 00:00:00 GMT 2011 ausima Flowering dogwood Cornus florida First Flower 39.018800000000000 -77.072500000000000 12226
Mon May 02 00:00:00 GMT 2011 HulaHoop Flowering dogwood Cornus florida First Leaf 41.701600000000000 -72.598200000000000 12273
Wed Apr 27 00:00:00 GMT 2011 HulaHoop Flowering dogwood Cornus florida First Flower 41.701600000000000 -72.598200000000000 12274
Sun May 01 00:00:00 GMT 2011 HulaHoop Flowering dogwood Cornus florida Full Flower 41.701600000000000 -72.598200000000000 12275
Sun Apr 24 00:00:00 GMT 2011 vstanley Flowering dogwood Cornus florida Full Flower 41.456400000000000 -72.811100000000000 12296
Sun Apr 10 00:00:00 GMT 2011 moranev Flowering dogwood Cornus florida Full Flower 35.951300000000000 -83.948200000000000 12392
Sun Apr 10 00:00:00 GMT 2011 moranev Flowering dogwood Cornus florida Full Flower 35.910200000000000 -83.971300000000000 12391
Sun Apr 17 00:00:00 GMT 2011 tommy craft Flowering dogwood Cornus florida First Leaf 41.395800000000000 -72.897200000000000 12455
Wed Apr 27 00:00:00 GMT 2011 tommy craft Flowering dogwood Cornus florida All Leaves Unfolded 41.395800000000000 -72.897200000000000 12456
Thu May 05 00:00:00 GMT 2011 tommy craft Flowering dogwood Cornus florida First Flower 41.395800000000000 -72.897200000000000 12457
Thu Apr 07 00:00:00 GMT 2011 KShaw Flowering dogwood Cornus florida First Leaf 38.926500000000000 -77.339500000000000 12982
Mon Apr 11 00:00:00 GMT 2011 KShaw Flowering dogwood Cornus florida All Leaves Unfolded 38.926500000000000 -77.339500000000000 12983
Fri Apr 15 00:00:00 GMT 2011 KShaw Flowering dogwood Cornus florida First Flower 38.926500000000000 -77.339500000000000 12984
Mon Apr 18 00:00:00 GMT 2011 KShaw Flowering dogwood Cornus florida Full Flower 38.926500000000000 -77.339500000000000 12985
Fri Sep 16 00:00:00 GMT 2011 aswitzer Flowering dogwood Cornus florida Leaves Changing Color (Early) 38.905000000000000 -77.037500000000000 13251
Tue Sep 20 00:00:00 GMT 2011 jstrickler Flowering dogwood Cornus florida Leaves Dropping (Middle) 36.553100000000000 -80.011300000000000 13316
Tue Sep 20 00:00:00 GMT 2011 Khoekstra Flowering dogwood Cornus florida Leaves Changing Color (Middle) 36.550000000000000 -80.010000000000000 13315
Tue Sep 20 00:00:00 GMT 2011 rcrabtree Flowering dogwood Cornus florida All Leaves Unfolded 36.553400000000000 -80.010900000000000 13317
Tue Sep 20 00:00:00 GMT 2011 rcrabtree Flowering dogwood Cornus florida Full Fruiting 36.553400000000000 -80.010900000000000 13318
Tue Sep 20 00:00:00 GMT 2011 Caitibird Flowering dogwood Cornus florida Leaves Changing Color (Middle) 36.000000000000000 -80.000000000000000 13320
Tue Sep 20 00:00:00 GMT 2011 ehodges Flowering dogwood Cornus florida Leaves Changing Color (Early) 36.553500000000000 -80.011100000000000 13319
Tue Sep 20 00:00:00 GMT 2011 aktowt Flowering dogwood Cornus florida Leaves Changing Color (Early) 43.100000000000000 -77.497600000000000 13308
Wed Sep 21 00:00:00 GMT 2011 annieh Flowering dogwood Cornus florida Fruit (Late) 38.000000000000000 -77.048800000000000 13330
Thu Sep 22 00:00:00 GMT 2011 kimmunshower@hotmail.com Flowering dogwood Cornus florida Fruit (Late) 38.490000000000000 -77.140000000000000 13368
Wed Sep 21 00:00:00 GMT 2011 morgan.zwissler Flowering dogwood Cornus florida Leaves Changing Color (Early) 39.444700000000000 -77.965600000000000 13347
Fri Sep 23 00:00:00 GMT 2011 cshipley Flowering dogwood Cornus florida Fruit (Early) 39.000000000000000 -77.000000000000000 13385
Fri Sep 23 00:00:00 GMT 2011 ccalhoun Flowering dogwood Cornus florida Leaves Changing Color (Early) 39.444700000000000 -77.965700000000000 13406
Thu Sep 15 00:00:00 GMT 2011 Carrie DeJaco Flowering dogwood Cornus florida First Ripe Fruit 35.216900000000000 -80.757200000000000 13473
Sat Oct 01 00:00:00 GMT 2011 Carrie DeJaco Flowering dogwood Cornus florida Full Fruiting 35.216900000000000 -80.757200000000000 13474
Sat Oct 01 00:00:00 GMT 2011 Carrie DeJaco Flowering dogwood Cornus florida Leaves Changing Color (Early) 35.216900000000000 -80.757200000000000 13471
Sat Oct 01 00:00:00 GMT 2011 Carrie DeJaco Flowering dogwood Cornus florida Leaves Changing Color (Early) 35.216900000000000 -80.757200000000000 13472
Tue Sep 27 00:00:00 GMT 2011 rsdutton Flowering dogwood Cornus florida Full Fruiting 33.918500000000000 -84.840900000000000 13478
Fri Sep 30 00:00:00 GMT 2011 ash Flowering dogwood Cornus florida 50% Color 38.833600000000000 -77.069800000000000 13496
Tue Sep 27 00:00:00 GMT 2011 cwmartin Flowering dogwood Cornus florida Leaves Changing Color (Late) 36.926000000000000 -80.019400000000000 13498
Tue Sep 20 00:00:00 GMT 2011 ehodges Flowering dogwood Cornus florida Leaves Changing Color (Early) 36.926300000000000 -80.019800000000000 13499
Wed Oct 05 00:00:00 GMT 2011 palaback Flowering dogwood Cornus florida Leaves Changing Color (Middle) 41.785300000000000 -73.730400000000000 13530
Sat May 14 00:00:00 GMT 2011 bholtz Flowering dogwood Cornus florida First Leaf 41.423400000000000 -81.419700000000000 13564
Wed May 18 00:00:00 GMT 2011 bholtz Flowering dogwood Cornus florida All Leaves Unfolded 41.423400000000000 -81.419700000000000 13565
Sun May 01 00:00:00 GMT 2011 bholtz Flowering dogwood Cornus florida First Flower 41.423400000000000 -81.419700000000000 13566
Tue May 10 00:00:00 GMT 2011 bholtz Flowering dogwood Cornus florida Full Flower 41.423400000000000 -81.419700000000000 13567
Thu Sep 08 00:00:00 GMT 2011 bholtz Flowering dogwood Cornus florida Full Fruiting 41.423400000000000 -81.419700000000000 13568
Sat Sep 17 00:00:00 GMT 2011 bholtz Flowering dogwood Cornus florida 50% Color 41.423400000000000 -81.419700000000000 13569
Sun Oct 09 00:00:00 GMT 2011 bholtz Flowering dogwood Cornus florida 50% Leaf Fall 41.423400000000000 -81.419700000000000 13570
Wed Sep 21 00:00:00 GMT 2011 kjminniti Flowering dogwood Cornus florida Leaves Changing Color (Early) 47.719400000000000 -117.393000000000000 13552
Sun Apr 17 00:00:00 GMT 2011 vanndawn Flowering dogwood Cornus florida First Flower 38.996400000000000 -92.613100000000000 13604
Tue Apr 19 00:00:00 GMT 2011 vanndawn Flowering dogwood Cornus florida Full Flower 38.996400000000000 -92.613100000000000 13605
Wed Oct 05 00:00:00 GMT 2011 vanndawn Flowering dogwood Cornus florida First Ripe Fruit 38.996400000000000 -92.613100000000000 13606
Sun Oct 09 00:00:00 GMT 2011 vanndawn Flowering dogwood Cornus florida Full Fruiting 38.996400000000000 -92.613100000000000 13607
Sat Oct 08 00:00:00 GMT 2011 vanndawn Flowering dogwood Cornus florida 50% Color 38.996400000000000 -92.613100000000000 13608
Wed Oct 12 00:00:00 GMT 2011 vanndawn Flowering dogwood Cornus florida 50% Leaf Fall 38.996400000000000 -92.613100000000000 13609
Mon Sep 26 00:00:00 GMT 2011 waverlybigmatt Flowering dogwood Cornus florida Full Fruiting 36.555200000000000 -80.121400000000000 13612
Fri Nov 04 00:00:00 GMT 2011 kjminniti Flowering dogwood Cornus florida 50% Color 47.719400000000000 -117.393000000000000 13804
Tue Apr 05 00:00:00 GMT 2011 SusannahPrindle Flowering dogwood Cornus florida First Leaf 39.096700000000000 -77.023900000000000 13934
Sat Apr 16 00:00:00 GMT 2011 SusannahPrindle Flowering dogwood Cornus florida All Leaves Unfolded 39.096700000000000 -77.023900000000000 13935
Wed Apr 13 00:00:00 GMT 2011 SusannahPrindle Flowering dogwood Cornus florida First Flower 39.096700000000000 -77.023900000000000 13936
Sun Sep 18 00:00:00 GMT 2011 SusannahPrindle Flowering dogwood Cornus florida First Ripe Fruit 39.096700000000000 -77.023900000000000 13937
Mon Oct 10 00:00:00 GMT 2011 SusannahPrindle Flowering dogwood Cornus florida 50% Color 39.096700000000000 -77.023900000000000 13938
Thu Nov 10 00:00:00 GMT 2011 SusannahPrindle Flowering dogwood Cornus florida 50% Leaf Fall 39.096700000000000 -77.023900000000000 13939
Mon Dec 12 00:00:00 GMT 2011 kjminniti Flowering dogwood Cornus florida 50% Leaf Fall 47.719400000000000 -117.393000000000000 13990
Wed Feb 22 00:00:00 GMT 2012 sonyaguidry@yahoo.com Flowering dogwood Cornus florida First Leaf 29.042400000000000 -80.939500000000000 14118
Sat Feb 25 00:00:00 GMT 2012 sonyaguidry@yahoo.com Flowering dogwood Cornus florida First Flower 29.042400000000000 -80.939500000000000 14119
Fri Feb 24 00:00:00 GMT 2012 sonyaguidry@yahoo.com Flowering dogwood Cornus florida All Leaves Unfolded 29.042400000000000 -80.939500000000000 14121
Fri Feb 24 00:00:00 GMT 2012 sonyaguidry@yahoo.com Flowering dogwood Cornus florida All Leaves Unfolded 29.042400000000000 -80.939500000000000 14122
Tue Feb 28 00:00:00 GMT 2012 cshadylane Flowering dogwood Cornus florida First Leaf 30.529700000000000 -95.151100000000000 14202
Tue Mar 06 00:00:00 GMT 2012 cshadylane Flowering dogwood Cornus florida All Leaves Unfolded 30.529700000000000 -95.151100000000000 14203
Fri Mar 09 00:00:00 GMT 2012 cshadylane Flowering dogwood Cornus florida First Flower 30.529700000000000 -95.151100000000000 14204
Thu Mar 08 00:00:00 GMT 2012 schmalbeck@ncssm.edu Flowering dogwood Cornus florida Flowers (Early) 36.007400000000000 -78.911300000000000 14253
Thu Mar 15 00:00:00 GMT 2012 schmalbeck@ncssm.edu Flowering dogwood Cornus florida Flowers (Early) 36.007400000000000 -78.911300000000000 14283
Mon Mar 19 00:00:00 GMT 2012 schmalbeck@ncssm.edu Flowering dogwood Cornus florida Flowers (Middle) 36.007400000000000 -78.911300000000000 14305
Wed Mar 21 00:00:00 GMT 2012 cory Flowering dogwood Cornus florida First Leaf 38.990000000000000 -77.080000000000000 14364
Tue Mar 20 00:00:00 GMT 2012 lsellman Flowering dogwood Cornus florida First Leaf 38.033600000000000 -78.472900000000000 14359
Sun Mar 18 00:00:00 GMT 2012 lsellman Flowering dogwood Cornus florida First Flower 38.033600000000000 -78.472900000000000 14360
Wed Mar 21 00:00:00 GMT 2012 lsellman Flowering dogwood Cornus florida Full Flower 38.033600000000000 -78.472900000000000 14361
Wed Mar 21 00:00:00 GMT 2012 rwh2411 Flowering dogwood Cornus florida First Flower 37.602300000000000 -77.475800000000000 14379
Fri Mar 23 00:00:00 GMT 2012 rwh2411 Flowering dogwood Cornus florida First Leaf 37.602300000000000 -77.475800000000000 14446
Fri Mar 02 00:00:00 GMT 2012 rsdutton Flowering dogwood Cornus florida First Leaf 33.918500000000000 -84.840900000000000 14432
Sun Mar 11 00:00:00 GMT 2012 rsdutton Flowering dogwood Cornus florida All Leaves Unfolded 33.918500000000000 -84.840900000000000 14433
Tue Mar 13 00:00:00 GMT 2012 rsdutton Flowering dogwood Cornus florida First Flower 33.918500000000000 -84.840900000000000 14434
Sat Mar 24 00:00:00 GMT 2012 cory Flowering dogwood Cornus florida All Leaves Unfolded 38.990000000000000 -77.080000000000000 14462
Thu Mar 15 00:00:00 GMT 2012 MikeB45 Flowering dogwood Cornus florida First Leaf 39.640700000000000 -78.089600000000000 14455
Wed Mar 21 00:00:00 GMT 2012 SandraPFry Flowering dogwood Cornus florida First Flower 37.506000000000000 -77.649000000000000 14483
Fri Mar 23 00:00:00 GMT 2012 SandraPFry Flowering dogwood Cornus florida Full Flower 37.506000000000000 -77.649000000000000 14484
Wed Mar 28 00:00:00 GMT 2012 srseavey Flowering dogwood Cornus florida Flowers (Middle) 36.866200000000000 -76.059600000000000 14544
Fri Mar 16 00:00:00 GMT 2012 sonyaguidry@yahoo.com Flowering dogwood Cornus florida Full Flower 29.042400000000000 -80.939500000000000 14589
Sun Mar 04 00:00:00 GMT 2012 Mary Ann Flowering dogwood Cornus florida First Leaf 41.610600000000000 -87.064200000000000 14646
Fri Mar 09 00:00:00 GMT 2012 Mary Ann Flowering dogwood Cornus florida All Leaves Unfolded 41.610600000000000 -87.064200000000000 14647
Mon Mar 26 00:00:00 GMT 2012 Mary Ann Flowering dogwood Cornus florida First Flower 41.610600000000000 -87.064200000000000 14648
Sun Apr 01 00:00:00 GMT 2012 Mary Ann Flowering dogwood Cornus florida Full Flower 41.610600000000000 -87.064200000000000 14649
Wed Mar 28 00:00:00 GMT 2012 tuckerasso Flowering dogwood Cornus florida First Flower 37.231600000000000 -76.663600000000000 14709
Fri Mar 30 00:00:00 GMT 2012 tuckerasso Flowering dogwood Cornus florida Full Flower 37.231600000000000 -76.663600000000000 14710
Thu Mar 22 00:00:00 GMT 2012 mebrown Flowering dogwood Cornus florida All Leaves Unfolded 36.085700000000000 -79.501200000000000 14723
Tue Apr 03 00:00:00 GMT 2012 mebrown Flowering dogwood Cornus florida Full Flower 36.085700000000000 -79.501200000000000 14724
Tue Mar 27 00:00:00 GMT 2012 Teachrva Flowering dogwood Cornus florida Full Flower 37.285800000000000 -80.051800000000000 14734
Sat Mar 31 00:00:00 GMT 2012 tuckerasso Flowering dogwood Cornus florida First Leaf 37.231600000000000 -76.663600000000000 14746
Tue Apr 03 00:00:00 GMT 2012 tuckerasso Flowering dogwood Cornus florida All Leaves Unfolded 37.231600000000000 -76.663600000000000 14747
Tue Apr 03 00:00:00 GMT 2012 eulera Flowering dogwood Cornus florida First Flower 40.459000000000000 -86.776300000000000 14808
Fri Apr 06 00:00:00 GMT 2012 eulera Flowering dogwood Cornus florida Full Flower 40.459000000000000 -86.776300000000000 14809
Tue Apr 10 00:00:00 GMT 2012 kbertamus Flowering dogwood Cornus florida Flowers (Late) 42.058000000000000 -87.681600000000000 14900
Thu Apr 12 00:00:00 GMT 2012 ledarling Flowering dogwood Cornus florida Leaves Unfolding (Middle) 41.978600000000000 -87.676300000000000 14936
Sat Apr 07 00:00:00 GMT 2012 suzanne@zoomeasy.com Flowering dogwood Cornus florida Flowers (Late) 35.990000000000000 -78.890000000000000 15004
Tue Apr 10 00:00:00 GMT 2012 tsao12a Flowering dogwood Cornus florida Flowers (Late) 36.017900000000000 -78.921200000000000 15010
Mon Apr 16 00:00:00 GMT 2012 navinav Flowering dogwood Cornus florida Flowers (Late) 36.000000000000000 -78.000000000000000 15011
Wed Mar 14 00:00:00 GMT 2012 jadeandcarla Flowering dogwood Cornus florida First Flower 36.018100000000000 -78.921500000000000 15050
Sat Mar 24 00:00:00 GMT 2012 jadeandcarla Flowering dogwood Cornus florida Full Flower 36.018100000000000 -78.921500000000000 15051
Wed Apr 18 00:00:00 GMT 2012 jacobpawlik Flowering dogwood Cornus florida Leaves Unfolding (Middle) 36.017900000000000 -78.921200000000000 15074
Mon Mar 19 00:00:00 GMT 2012 jacobpawlik Flowering dogwood Cornus florida Leaves Unfolding (Early) 36.017900000000000 -78.921200000000000 15075
Thu Apr 19 00:00:00 GMT 2012 Erin_VS Flowering dogwood Cornus florida Flowers (Middle) 41.815900000000000 -88.056900000000000 15109
Thu Apr 19 00:00:00 GMT 2012 ledarling Flowering dogwood Cornus florida Flowers (Middle) 41.952300000000000 -87.734700000000000 15111
Tue Apr 17 00:00:00 GMT 2012 lduncan Flowering dogwood Cornus florida Fruit (Early) 34.674700000000000 -82.822200000000000 15190
Tue Feb 07 00:00:00 GMT 2012 ghekko Flowering dogwood Cornus florida First Leaf 37.338700000000000 -92.907100000000000 15225
Sat Mar 10 00:00:00 GMT 2012 ghekko Flowering dogwood Cornus florida All Leaves Unfolded 37.338700000000000 -92.907100000000000 15226
Wed Mar 28 00:00:00 GMT 2012 ghekko Flowering dogwood Cornus florida First Flower 37.338700000000000 -92.907100000000000 15227
Sat Apr 07 00:00:00 GMT 2012 ghekko Flowering dogwood Cornus florida Full Flower 37.338700000000000 -92.907100000000000 15228
Thu Apr 05 00:00:00 GMT 2012 cdmaples Flowering dogwood Cornus florida Flowers (Early) 36.700000000000000 -83.290000000000000 15255
Thu Apr 05 00:00:00 GMT 2012 cdmaples Flowering dogwood Cornus florida Leaves Changing Color (Early) 36.700000000000000 -83.000000000000000 15251
Tue Mar 20 00:00:00 GMT 2012 cdmaples Flowering dogwood Cornus florida Leaves Unfolding (Early) 36.700000000000000 -83.290000000000000 15254
Sat Mar 17 00:00:00 GMT 2012 suhasbonthu@yahoo.com Flowering dogwood Cornus florida Flowers (Late) 36.018000000000000 -78.000000000000000 15259
Fri Apr 27 00:00:00 GMT 2012 Smcclennon Flowering dogwood Cornus florida Leaves Unfolding (Early) 44.001000000000000 -71.041400000000000 15330
Wed May 02 00:00:00 GMT 2012 centralNY Flowering dogwood Cornus florida Full Flower 43.041000000000000 -76.212900000000000 15426
Thu May 03 00:00:00 GMT 2012 ledarling Flowering dogwood Cornus florida Flowers (Late) 41.977700000000000 -87.676300000000000 15437
Thu May 10 00:00:00 GMT 2012 ledarling Flowering dogwood Cornus florida Flowers (Late) 41.977700000000000 -87.676300000000000 15554
Fri Mar 23 00:00:00 GMT 2012 rwh2411 Flowering dogwood Cornus florida All Leaves Unfolded 37.602300000000000 -77.475800000000000 16024
Mon Mar 26 00:00:00 GMT 2012 rwh2411 Flowering dogwood Cornus florida Full Flower 37.602300000000000 -77.475800000000000 16025
Wed Mar 21 00:00:00 GMT 2012 rwh2411 Flowering dogwood Cornus florida First Ripe Fruit 37.602300000000000 -77.475800000000000 16026
Sat Mar 24 00:00:00 GMT 2012 rwh2411 Flowering dogwood Cornus florida Full Fruiting 37.602300000000000 -77.475800000000000 16027
Wed Mar 21 00:00:00 GMT 2012 SusannahPrindle Flowering dogwood Cornus florida First Leaf 39.096700000000000 -77.023900000000000 16196
Sat Apr 14 00:00:00 GMT 2012 SusannahPrindle Flowering dogwood Cornus florida All Leaves Unfolded 39.096700000000000 -77.023900000000000 16197
Mon Mar 26 00:00:00 GMT 2012 SusannahPrindle Flowering dogwood Cornus florida First Flower 39.096700000000000 -77.023900000000000 16198
Fri Mar 30 00:00:00 GMT 2012 SusannahPrindle Flowering dogwood Cornus florida Full Flower 39.096700000000000 -77.023900000000000 16199
Sun Apr 17 00:00:00 GMT 2011 vanndawn Flowering dogwood Cornus florida Full Flower 38.996400000000000 -92.613100000000000 16388
Tue Apr 19 00:00:00 GMT 2011 vanndawn Flowering dogwood Cornus florida First Ripe Fruit 38.996400000000000 -92.613100000000000 16389
Tue Oct 11 00:00:00 GMT 2011 vanndawn Flowering dogwood Cornus florida 50% Color 38.996400000000000 -92.613100000000000 16390
Tue Oct 25 00:00:00 GMT 2011 vanndawn Flowering dogwood Cornus florida 50% Leaf Fall 38.996400000000000 -92.613100000000000 16391
Tue Mar 27 00:00:00 GMT 2012 vanndawn Flowering dogwood Cornus florida First Flower 38.996400000000000 -92.613100000000000 16392
Tue Sep 04 00:00:00 GMT 2012 mkjohns Flowering dogwood Cornus florida Fruit (Middle) 39.368200000000000 -76.604400000000000 16522
Wed Sep 05 00:00:00 GMT 2012 mari Flowering dogwood Cornus florida Fruit (Late) 35.592100000000000 -84.084200000000000 16528
Thu Sep 13 00:00:00 GMT 2012 mari Flowering dogwood Cornus florida Leaves Changing Color (Early) 35.592100000000000 -84.084200000000000 16595
Thu Sep 20 00:00:00 GMT 2012 mari Flowering dogwood Cornus florida Leaves Changing Color (Early) 35.592100000000000 -84.084200000000000 16732
Fri Sep 28 00:00:00 GMT 2012 mari Flowering dogwood Cornus florida Leaves Changing Color (Early) 35.592100000000000 -84.084200000000000 16757
Thu Oct 04 00:00:00 GMT 2012 mari Flowering dogwood Cornus florida Leaves Changing Color (Early) 35.592100000000000 -84.084200000000000 16781
Sun Oct 14 00:00:00 GMT 2012 owlclass Flowering dogwood Cornus florida Fruit (Middle) 37.300400000000000 -80.076200000000000 17009
Fri Oct 19 00:00:00 GMT 2012 mari Flowering dogwood Cornus florida Leaves Changing Color (Middle) 35.592100000000000 -84.084200000000000 17039
Thu Mar 22 00:00:00 GMT 2012 bholtz Flowering dogwood Cornus florida First Leaf 41.423400000000000 -81.419700000000000 17437
Tue Apr 17 00:00:00 GMT 2012 bholtz Flowering dogwood Cornus florida All Leaves Unfolded 41.423400000000000 -81.419700000000000 17438
Sun Apr 01 00:00:00 GMT 2012 bholtz Flowering dogwood Cornus florida First Flower 41.423400000000000 -81.419700000000000 17439
Mon Apr 30 00:00:00 GMT 2012 bholtz Flowering dogwood Cornus florida Full Flower 41.423400000000000 -81.419700000000000 17440
Wed Sep 05 00:00:00 GMT 2012 bholtz Flowering dogwood Cornus florida 50% Color 41.423400000000000 -81.419700000000000 17441
Wed Oct 10 00:00:00 GMT 2012 bholtz Flowering dogwood Cornus florida 50% Leaf Fall 41.423400000000000 -81.419700000000000 17442
Fri Nov 02 00:00:00 GMT 2012 mari Flowering dogwood Cornus florida Leaves Changing Color (Late) 35.592100000000000 -84.084200000000000 17450
Tue Sep 11 00:00:00 GMT 2012 tuckerasso Flowering dogwood Cornus florida First Ripe Fruit 37.231600000000000 -76.663600000000000 17649
Thu Oct 18 00:00:00 GMT 2012 tuckerasso Flowering dogwood Cornus florida Full Fruiting 37.231600000000000 -76.663600000000000 17650
Mon Sep 17 00:00:00 GMT 2012 tuckerasso Flowering dogwood Cornus florida 50% Color 37.231600000000000 -76.663600000000000 17651
Wed Mar 21 00:00:00 GMT 2012 SusannahPrindle Flowering dogwood Cornus florida First Leaf 39.096700000000000 -77.023900000000000 17692
Sat Apr 14 00:00:00 GMT 2012 SusannahPrindle Flowering dogwood Cornus florida All Leaves Unfolded 39.096700000000000 -77.023900000000000 17693
Mon Mar 26 00:00:00 GMT 2012 SusannahPrindle Flowering dogwood Cornus florida First Flower 39.096700000000000 -77.023900000000000 17694
Fri Mar 30 00:00:00 GMT 2012 SusannahPrindle Flowering dogwood Cornus florida Full Flower 39.096700000000000 -77.023900000000000 17695
Thu Aug 30 00:00:00 GMT 2012 SusannahPrindle Flowering dogwood Cornus florida Full Fruiting 39.096700000000000 -77.023900000000000 17696
Tue Oct 23 00:00:00 GMT 2012 SusannahPrindle Flowering dogwood Cornus florida 50% Leaf Fall 39.096700000000000 -77.023900000000000 17697
Thu Feb 14 00:00:00 GMT 2013 ncmns Flowering dogwood Cornus florida Fruit (Middle) 35.783400000000000 -78.641000000000000 17960
Fri Apr 03 00:00:00 GMT 2009 gmwimp Flowering dogwood Cornus florida Bud Burst 38.908400000000000 -77.072500000000000 18052
Fri Apr 03 00:00:00 GMT 2009 gmwimp Flowering dogwood Cornus florida First Leaf 38.908400000000000 -77.072500000000000 18053
Mon Apr 13 00:00:00 GMT 2009 gmwimp Flowering dogwood Cornus florida All Leaves Unfolded 38.908400000000000 -77.072500000000000 18054
Sun Mar 03 00:00:00 GMT 2013 1480584 Flowering dogwood Cornus florida Bud Burst 35.813900000000000 -86.416400000000000 18096
Wed Mar 20 00:00:00 GMT 2013 SciTeach2_Our_Corner_of_Clark_Park_reporter2 Flowering dogwood Cornus florida Flowers (Early) 39.947100000000000 -75.209900000000000 18209
Sat Mar 23 00:00:00 GMT 2013 ncmns Flowering dogwood Cornus florida Flowers (Early) 35.811500000000000 -78.713600000000000 18248
Mon Mar 25 00:00:00 GMT 2013 donaher13s Flowering dogwood Cornus florida Bud Burst 35.946000000000000 -80.365100000000000 18326
Thu Mar 28 00:00:00 GMT 2013 ncmns Flowering dogwood Cornus florida Flowers (Early) 35.810400000000000 -78.715000000000000 18373
Thu Mar 28 00:00:00 GMT 2013 ncmns Flowering dogwood Cornus florida Flowers (Middle) 35.782700000000000 -78.640400000000000 18368
Fri Mar 15 00:00:00 GMT 2013 Dadgar14S Flowering dogwood Cornus florida Bud Burst 35.789700000000000 -78.651700000000000 18390
Sun Mar 31 00:00:00 GMT 2013 askinner Flowering dogwood Cornus florida Flowers (Early) 37.227800000000000 -80.416100000000000 18402
Sat Mar 23 00:00:00 GMT 2013 sarasnyder6 Flowering dogwood Cornus florida Bud Burst 35.063700000000000 -77.149500000000000 18406
Sun Mar 31 00:00:00 GMT 2013 lsjones1 Flowering dogwood Cornus florida Bud Burst 35.685200000000000 -79.180700000000000 18397
Fri Mar 29 00:00:00 GMT 2013 thmad1 Flowering dogwood Cornus florida Bud Burst 35.804400000000000 -79.053300000000000 18407
Sun Mar 31 00:00:00 GMT 2013 sborth1 Flowering dogwood Cornus florida Bud Burst 35.497600000000000 -80.832000000000000 18486
Fri Apr 05 00:00:00 GMT 2013 CCantwell Flowering dogwood Cornus florida Bud Burst 33.839900000000000 -84.230900000000000 18512
Fri Apr 05 00:00:00 GMT 2013 bmccalli Flowering dogwood Cornus florida Bud Burst 39.164400000000000 -86.514500000000000 18553
Tue Feb 12 00:00:00 GMT 2013 haley Flowering dogwood Cornus florida Bud Burst 39.170000000000000 -86.530000000000000 18597
Tue Jan 29 00:00:00 GMT 2013 jmta Flowering dogwood Cornus florida Bud Burst 39.165300000000000 -86.526400000000000 18601
Sat Apr 06 00:00:00 GMT 2013 gregor Flowering dogwood Cornus florida Bud Burst 35.668400000000000 -81.223500000000000 18677
Wed Apr 03 00:00:00 GMT 2013 thmad1 Flowering dogwood Cornus florida First Leaf 35.804400000000000 -79.053300000000000 18679
Sun Apr 07 00:00:00 GMT 2013 thmad1 Flowering dogwood Cornus florida All Leaves Unfolded 35.804400000000000 -79.053300000000000 18680
Mon Apr 08 00:00:00 GMT 2013 lsjones1_CCHS_reporter14 Flowering dogwood Cornus florida Leaves Unfolding (Early) 35.613300000000000 -79.390100000000000 18637
Mon Apr 08 00:00:00 GMT 2013 CCantwell Flowering dogwood Cornus florida First Leaf 33.839900000000000 -84.230900000000000 18689
Thu Apr 04 00:00:00 GMT 2013 kkrill2 Flowering dogwood Cornus florida Bud Burst 33.980900000000000 -84.188300000000000 18729
Sat Apr 06 00:00:00 GMT 2013 kkrill2 Flowering dogwood Cornus florida First Leaf 33.980900000000000 -84.188300000000000 18730
Sun Mar 31 00:00:00 GMT 2013 aleggett Flowering dogwood Cornus florida Bud Burst 33.956600000000000 -84.370400000000000 18710
Sat Apr 06 00:00:00 GMT 2013 aleggett Flowering dogwood Cornus florida First Flower 33.956600000000000 -84.370400000000000 18711
Fri Apr 05 00:00:00 GMT 2013 vmcduffie Flowering dogwood Cornus florida Bud Burst 33.848100000000000 -84.295300000000000 18714
Sat Apr 06 00:00:00 GMT 2013 t-moore Flowering dogwood Cornus florida Bud Burst 33.791100000000000 -84.310600000000000 18732
Wed Apr 10 00:00:00 GMT 2013 akrademaker Flowering dogwood Cornus florida Flowers (Late) 39.167600000000000 -86.516600000000000 18740
Thu Jan 24 00:00:00 GMT 2013 samivy333 Flowering dogwood Cornus florida Bud Burst 39.167000000000000 -86.520400000000000 18754
Wed Apr 10 00:00:00 GMT 2013 cbleacher16 Flowering dogwood Cornus florida Bud Burst 33.960000000000000 -84.276800000000000 18763
Mon Apr 08 00:00:00 GMT 2013 mcastro16 Flowering dogwood Cornus florida Bud Burst 33.887500000000000 -84.341600000000000 18768
Wed Apr 10 00:00:00 GMT 2013 mcastro16 Flowering dogwood Cornus florida First Leaf 33.887500000000000 -84.341600000000000 18769
Wed Apr 10 00:00:00 GMT 2013 mcastro16 Flowering dogwood Cornus florida All Leaves Unfolded 33.887500000000000 -84.341600000000000 18770
Wed Apr 10 00:00:00 GMT 2013 mcastro16 Flowering dogwood Cornus florida First Flower 33.887500000000000 -84.341600000000000 18771
Tue Apr 09 00:00:00 GMT 2013 sasimeonides Flowering dogwood Cornus florida Flowers (Early) 36.077700000000000 -80.338300000000000 18775
Mon Apr 08 00:00:00 GMT 2013 adfitzgerald@woodlawnschool.org Flowering dogwood Cornus florida All Leaves Unfolded 35.543200000000000 -80.847300000000000 18785
Tue Apr 09 00:00:00 GMT 2013 adfitzgerald@woodlawnschool.org Flowering dogwood Cornus florida First Flower 35.543200000000000 -80.847300000000000 18786
Wed Apr 10 00:00:00 GMT 2013 adfitzgerald@woodlawnschool.org Flowering dogwood Cornus florida Full Flower 35.543200000000000 -80.847300000000000 18787
Thu Apr 11 00:00:00 GMT 2013 ncmns Flowering dogwood Cornus florida Leaves Unfolding (Middle) 35.782800000000000 -78.639300000000000 18791
Mon Apr 08 00:00:00 GMT 2013 adfitzgerald@woodlawnschool.org_Env_Studies_2013_reporter4 Flowering dogwood Cornus florida Bud Burst 35.543200000000000 -80.847300000000000 18815
Thu Apr 11 00:00:00 GMT 2013 adfitzgerald@woodlawnschool.org_Env_Studies_2013_reporter4 Flowering dogwood Cornus florida First Leaf 35.543200000000000 -80.847300000000000 18816
Mon Apr 08 00:00:00 GMT 2013 gwgoing15 Flowering dogwood Cornus florida Bud Burst 33.816400000000000 -84.093800000000000 18821
Sat Apr 06 00:00:00 GMT 2013 gwgoing15 Flowering dogwood Cornus florida First Leaf 33.816400000000000 -84.093800000000000 18822
Thu Apr 11 00:00:00 GMT 2013 gwgoing15 Flowering dogwood Cornus florida First Flower 33.816400000000000 -84.093800000000000 18823
Thu Apr 11 00:00:00 GMT 2013 Mango55 Flowering dogwood Cornus florida Bud Burst 40.208200000000000 -76.771900000000000 18817
Sun Apr 07 00:00:00 GMT 2013 adfitzgerald@woodlawnschool.org_Env_Studies_2013_reporter7 Flowering dogwood Cornus florida Bud Burst 35.543200000000000 -80.847300000000000 18809
Thu Apr 11 00:00:00 GMT 2013 adfitzgerald@woodlawnschool.org_Env_Studies_2013_reporter7 Flowering dogwood Cornus florida First Leaf 35.543200000000000 -80.847300000000000 18810
Fri Apr 12 00:00:00 GMT 2013 RMNP Flowering dogwood Cornus florida Bud Burst 38.030700000000000 -78.726400000000000 18846
Fri Apr 12 00:00:00 GMT 2013 MiaCora Flowering dogwood Cornus florida First Flower 35.045100000000000 -78.950400000000000 18845
Fri Apr 12 00:00:00 GMT 2013 jerribitner Flowering dogwood Cornus florida Bud Burst 40.018100000000000 -76.880000000000000 18877
Thu Apr 11 00:00:00 GMT 2013 mareseatoats Flowering dogwood Cornus florida Bud Burst 38.020100000000000 -78.634400000000000 18857
Thu Apr 11 00:00:00 GMT 2013 mareseatoats Flowering dogwood Cornus florida First Flower 38.020100000000000 -78.634400000000000 18859
Sat Apr 13 00:00:00 GMT 2013 jerribitner Flowering dogwood Cornus florida First Flower 40.018100000000000 -76.880000000000000 18880
Fri Mar 29 00:00:00 GMT 2013 iwilkinson16 Flowering dogwood Cornus florida Bud Burst 34.032600000000000 -84.020200000000000 18892
Tue Apr 02 00:00:00 GMT 2013 iwilkinson16 Flowering dogwood Cornus florida First Leaf 34.032600000000000 -84.020200000000000 18893
Sun Apr 07 00:00:00 GMT 2013 iwilkinson16 Flowering dogwood Cornus florida All Leaves Unfolded 34.032600000000000 -84.020200000000000 18894
Sun Apr 14 00:00:00 GMT 2013 iwilkinson16 Flowering dogwood Cornus florida First Flower 34.032600000000000 -84.020200000000000 18895
Sun Apr 07 00:00:00 GMT 2013 ElizabethK Flowering dogwood Cornus florida Bud Burst 41.281900000000000 -72.548200000000000 18898
Mon Mar 11 00:00:00 GMT 2013 ElizabethK Flowering dogwood Cornus florida First Leaf 41.281900000000000 -72.548200000000000 18899
Sun Apr 07 00:00:00 GMT 2013 ElizabethK Flowering dogwood Cornus florida All Leaves Unfolded 41.281900000000000 -72.548200000000000 18900
Fri Apr 12 00:00:00 GMT 2013 vmcduffie Flowering dogwood Cornus florida First Flower 33.848100000000000 -84.295300000000000 18950
Mon Apr 08 00:00:00 GMT 2013 vmcduffie Flowering dogwood Cornus florida First Leaf 33.848100000000000 -84.295300000000000 18949
Tue Apr 09 00:00:00 GMT 2013 mkoch16 Flowering dogwood Cornus florida All Leaves Unfolded 33.953200000000000 -84.341700000000000 18954
Tue Mar 26 00:00:00 GMT 2013 mkoch16 Flowering dogwood Cornus florida Bud Burst 33.953200000000000 -84.341700000000000 18951
Wed Mar 27 00:00:00 GMT 2013 mkoch16 Flowering dogwood Cornus florida First Leaf 33.953200000000000 -84.341700000000000 18952
Wed Apr 10 00:00:00 GMT 2013 mkoch16 Flowering dogwood Cornus florida First Flower 33.953200000000000 -84.341700000000000 18953
Thu Mar 28 00:00:00 GMT 2013 bpayton Flowering dogwood Cornus florida Bud Burst 36.066800000000000 -76.604700000000000 18978
Wed Apr 10 00:00:00 GMT 2013 bpayton Flowering dogwood Cornus florida First Flower 36.066800000000000 -76.604700000000000 18979
Wed Apr 17 00:00:00 GMT 2013 CCantwell Flowering dogwood Cornus florida All Leaves Unfolded 33.839900000000000 -84.230900000000000 19014
Sat Apr 20 00:00:00 GMT 2013 ncmns Flowering dogwood Cornus florida Leaves Unfolding (Late) 35.772100000000000 -78.638600000000000 19044
Sat Apr 20 00:00:00 GMT 2013 ncmns Flowering dogwood Cornus florida Leaves Unfolding (Late) 35.772100000000000 -78.638600000000000 19042
Sat Apr 20 00:00:00 GMT 2013 ncmns Flowering dogwood Cornus florida Flowers (Middle) 35.772100000000000 -78.638600000000000 19043
Thu Apr 18 00:00:00 GMT 2013 krupp695 Flowering dogwood Cornus florida Bud Burst 40.534500000000000 -75.615700000000000 19060
Wed Apr 17 00:00:00 GMT 2013 Mango55 Flowering dogwood Cornus florida First Flower 40.208200000000000 -76.771900000000000 19106
Mon Apr 22 00:00:00 GMT 2013 Mango55 Flowering dogwood Cornus florida First Leaf 40.208200000000000 -76.771900000000000 19108
Sat Apr 20 00:00:00 GMT 2013 Mango55 Flowering dogwood Cornus florida Full Flower 40.208200000000000 -76.771900000000000 19107
Thu Apr 18 00:00:00 GMT 2013 vmcduffie Flowering dogwood Cornus florida All Leaves Unfolded 33.848100000000000 -84.295300000000000 19111
Tue Apr 23 00:00:00 GMT 2013 jerribitner Flowering dogwood Cornus florida Full Flower 40.018100000000000 -76.880000000000000 19132
Fri Mar 29 00:00:00 GMT 2013 17561 Flowering dogwood Cornus florida Bud Burst 33.973700000000000 -84.313800000000000 19186
Sun Mar 10 00:00:00 GMT 2013 17561 Flowering dogwood Cornus florida First Leaf 33.973700000000000 -84.313800000000000 19187
Sat Apr 06 00:00:00 GMT 2013 17561 Flowering dogwood Cornus florida All Leaves Unfolded 33.973700000000000 -84.313800000000000 19188
Wed Mar 20 00:00:00 GMT 2013 17561 Flowering dogwood Cornus florida First Flower 33.973700000000000 -84.313800000000000 19189
Wed Mar 27 00:00:00 GMT 2013 17561 Flowering dogwood Cornus florida Full Flower 33.973700000000000 -84.313800000000000 19190
Sat Apr 27 00:00:00 GMT 2013 ncmns Flowering dogwood Cornus florida Leaves Unfolding (Late) 35.811700000000000 -78.713900000000000 19385
Sat Apr 13 00:00:00 GMT 2013 ncmns Flowering dogwood Cornus florida Leaves Unfolding (Early) 35.811700000000000 -78.713900000000000 19373
Tue Apr 30 00:00:00 GMT 2013 ncmns Flowering dogwood Cornus florida Leaves Unfolding (Early) 35.811700000000000 -78.713900000000000 19366
Sat Apr 20 00:00:00 GMT 2013 ncmns Flowering dogwood Cornus florida Leaves Unfolding (Late) 35.782300000000000 -78.639500000000000 19394
Tue Apr 30 00:00:00 GMT 2013 mkoch16 Flowering dogwood Cornus florida Full Flower 33.953200000000000 -84.341700000000000 19418
Fri Apr 12 00:00:00 GMT 2013 Someone Else 37 Flowering dogwood Cornus florida Bud Burst 36.224500000000000 -81.572700000000000 19325
Mon Apr 15 00:00:00 GMT 2013 carolsims Flowering dogwood Cornus florida First Leaf 38.753400000000000 -77.267900000000000 19535
Fri Apr 19 00:00:00 GMT 2013 carolsims Flowering dogwood Cornus florida All Leaves Unfolded 38.753400000000000 -77.267900000000000 19536
Tue Nov 27 00:00:00 GMT 2012 carolsims Flowering dogwood Cornus florida 50% Leaf Fall 38.753400000000000 -77.267900000000000 19537
Mon Apr 15 00:00:00 GMT 2013 carolsims Flowering dogwood Cornus florida First Leaf 38.772400000000000 -77.238100000000000 19530
Mon Apr 22 00:00:00 GMT 2013 carolsims Flowering dogwood Cornus florida All Leaves Unfolded 38.772400000000000 -77.238100000000000 19531
Wed Nov 28 00:00:00 GMT 2012 carolsims Flowering dogwood Cornus florida 50% Leaf Fall 38.772400000000000 -77.238100000000000 19532
Mon Apr 15 00:00:00 GMT 2013 carolsims Flowering dogwood Cornus florida First Leaf 38.753400000000000 -77.267900000000000 19533
Tue Nov 27 00:00:00 GMT 2012 carolsims Flowering dogwood Cornus florida 50% Leaf Fall 38.753400000000000 -77.267900000000000 19534
Mon Apr 15 00:00:00 GMT 2013 carolsims Flowering dogwood Cornus florida First Leaf 38.772400000000000 -77.238100000000000 19527
Mon Apr 22 00:00:00 GMT 2013 carolsims Flowering dogwood Cornus florida All Leaves Unfolded 38.772400000000000 -77.238100000000000 19528
Wed Nov 28 00:00:00 GMT 2012 carolsims Flowering dogwood Cornus florida 50% Leaf Fall 38.772400000000000 -77.238100000000000 19529
Tue Apr 16 00:00:00 GMT 2013 carolsims Flowering dogwood Cornus florida First Leaf 38.753400000000000 -77.267900000000000 19521
Tue Apr 23 00:00:00 GMT 2013 carolsims Flowering dogwood Cornus florida All Leaves Unfolded 38.753400000000000 -77.267900000000000 19522
Fri Nov 30 00:00:00 GMT 2012 carolsims Flowering dogwood Cornus florida 50% Leaf Fall 38.753400000000000 -77.267900000000000 19523
Tue Apr 16 00:00:00 GMT 2013 carolsims Flowering dogwood Cornus florida First Leaf 38.772700000000000 -77.238200000000000 19524
Tue Apr 23 00:00:00 GMT 2013 carolsims Flowering dogwood Cornus florida All Leaves Unfolded 38.772700000000000 -77.238200000000000 19525
Sat Dec 01 00:00:00 GMT 2012 carolsims Flowering dogwood Cornus florida 50% Leaf Fall 38.772700000000000 -77.238200000000000 19526
Fri May 03 00:00:00 GMT 2013 jerribitner Flowering dogwood Cornus florida First Leaf 40.018100000000000 -76.880000000000000 19717
Wed May 01 00:00:00 GMT 2013 ElizabethK Flowering dogwood Cornus florida First Flower 41.281900000000000 -72.548200000000000 19936
Mon May 06 00:00:00 GMT 2013 ElizabethK Flowering dogwood Cornus florida Full Flower 41.281900000000000 -72.548200000000000 19937
Wed May 01 00:00:00 GMT 2013 Mango55 Flowering dogwood Cornus florida All Leaves Unfolded 40.208200000000000 -76.771900000000000 20010
Wed May 08 00:00:00 GMT 2013 centralNY Flowering dogwood Cornus florida Full Flower 43.041000000000000 -76.212900000000000 20043
Sat Apr 13 00:00:00 GMT 2013 ggnoma Flowering dogwood Cornus florida Bud Burst 38.986600000000000 -77.119000000000000 20215
Sun Apr 14 00:00:00 GMT 2013 ggnoma Flowering dogwood Cornus florida First Leaf 38.986600000000000 -77.119000000000000 20216
Mon May 06 00:00:00 GMT 2013 ggnoma Flowering dogwood Cornus florida All Leaves Unfolded 38.986600000000000 -77.119000000000000 20217
Tue Apr 16 00:00:00 GMT 2013 ggnoma Flowering dogwood Cornus florida First Flower 38.986600000000000 -77.119000000000000 20218
Thu Apr 25 00:00:00 GMT 2013 ggnoma Flowering dogwood Cornus florida Full Flower 38.986600000000000 -77.119000000000000 20219
Sun May 05 00:00:00 GMT 2013 CCantwell Flowering dogwood Cornus florida First Flower 33.839900000000000 -84.230900000000000 20379
Thu May 16 00:00:00 GMT 2013 Green Frog Flowering dogwood Cornus florida Flowers (Early) 40.825400000000000 -74.332900000000000 20524
Sun May 12 00:00:00 GMT 2013 jerribitner Flowering dogwood Cornus florida All Leaves Unfolded 40.018100000000000 -76.880000000000000 20721
Wed Apr 10 00:00:00 GMT 2013 Angelyn Flowering dogwood Cornus florida Bud Burst 35.619100000000000 -82.765100000000000 20756
Sun Apr 14 00:00:00 GMT 2013 Angelyn Flowering dogwood Cornus florida First Leaf 35.619100000000000 -82.765100000000000 20757
Sun Apr 21 00:00:00 GMT 2013 Angelyn Flowering dogwood Cornus florida All Leaves Unfolded 35.619100000000000 -82.765100000000000 20758
Sun Apr 21 00:00:00 GMT 2013 Angelyn Flowering dogwood Cornus florida First Flower 35.619100000000000 -82.765100000000000 20759
Sun Jun 02 00:00:00 GMT 2013 harmonbudburst Flowering dogwood Cornus florida Flowers (Early) 41.340300000000000 -72.907800000000000 20903
Thu Mar 21 00:00:00 GMT 2013 SusannahPrindle Flowering dogwood Cornus florida First Leaf 39.096700000000000 -77.023900000000000 21738
Sun Apr 14 00:00:00 GMT 2013 SusannahPrindle Flowering dogwood Cornus florida All Leaves Unfolded 39.096700000000000 -77.023900000000000 21739
Tue Mar 26 00:00:00 GMT 2013 SusannahPrindle Flowering dogwood Cornus florida First Flower 39.096700000000000 -77.023900000000000 21740
Sat Mar 30 00:00:00 GMT 2013 SusannahPrindle Flowering dogwood Cornus florida Full Flower 39.096700000000000 -77.023900000000000 21741
Tue Sep 10 00:00:00 GMT 2013 usbg Flowering dogwood Cornus florida Fruit (Early) 38.888100000000000 -77.012900000000000 22006
Tue Sep 10 00:00:00 GMT 2013 usbg Flowering dogwood Cornus florida Leaves Changing Color (Early) 38.888100000000000 -77.012900000000000 21995
Sat Sep 14 00:00:00 GMT 2013 Clebeau Flowering dogwood Cornus florida Flowers (Middle) 38.888000000000000 -77.014200000000000 22061
Sat Sep 14 00:00:00 GMT 2013 jocelynbethany Flowering dogwood Cornus florida Fruit (Middle) 38.888000000000000 -77.014200000000000 22080
Tue Sep 24 00:00:00 GMT 2013 ssteiner Flowering dogwood Cornus florida 50% Color 35.100400000000000 -84.016400000000000 22113
Wed Oct 02 00:00:00 GMT 2013 GeekEarthMother Flowering dogwood Cornus florida Leaves Changing Color (Middle) 38.288200000000000 -77.414500000000000 22335
Thu Oct 03 00:00:00 GMT 2013 amcricket Flowering dogwood Cornus florida Leaves Changing Color (Middle) 40.308000000000000 -74.872800000000000 22337
Thu Oct 03 00:00:00 GMT 2013 AECMurillo Flowering dogwood Cornus florida Leaves Changing Color (Late) 37.456800000000000 -79.114500000000000 22342
Wed Oct 09 00:00:00 GMT 2013 joeydon73@yahoo.com Flowering dogwood Cornus florida Leaves Changing Color (Middle) 39.116100000000000 -77.027900000000000 22535
Fri Oct 11 00:00:00 GMT 2013 brydel_New_Branches_reporter62 Flowering dogwood Cornus florida 50% Leaf Fall 42.895800000000000 -85.635200000000000 22543
Fri Oct 11 00:00:00 GMT 2013 brydel_New_Branches_reporter62 Flowering dogwood Cornus florida 50% Leaf Fall 42.895800000000000 -85.635200000000000 22544
Sat Oct 19 00:00:00 GMT 2013 usbg Flowering dogwood Cornus florida Leaves Changing Color (Middle) 38.888100000000000 -77.012900000000000 22662
Sat Oct 19 00:00:00 GMT 2013 usbg Flowering dogwood Cornus florida Leaves Changing Color (Late) 38.888100000000000 -77.012900000000000 22627
Sat Oct 19 00:00:00 GMT 2013 usbg Flowering dogwood Cornus florida Leaves Changing Color (Late) 38.888100000000000 -77.012900000000000 22639
Sat Oct 19 00:00:00 GMT 2013 usbg Flowering dogwood Cornus florida Leaves Changing Color (Late) 38.888100000000000 -77.012900000000000 22651
Sun Oct 20 00:00:00 GMT 2013 centralNY Flowering dogwood Cornus florida 50% Color 43.041000000000000 -76.212900000000000 22696
Sat Oct 19 00:00:00 GMT 2013 kweatherspoon0001 Flowering dogwood Cornus florida Leaves Unfolding (Late) 36.636100000000000 -88.451800000000000 22719
Tue Oct 15 00:00:00 GMT 2013 greendragon Flowering dogwood Cornus florida 50% Color 37.662400000000000 -89.250700000000000 22707
Tue Oct 22 00:00:00 GMT 2013 mareseatoats Flowering dogwood Cornus florida 50% Leaf Fall 38.020100000000000 -78.634400000000000 22728
Mon Oct 28 00:00:00 GMT 2013 chelslaine5391 Flowering dogwood Cornus florida Flowers (Late) 36.642300000000000 -88.738900000000000 22861
Thu Oct 17 00:00:00 GMT 2013 cyoungblood Flowering dogwood Cornus florida 50% Color 36.981500000000000 -88.642200000000000 22915
Sun Nov 03 00:00:00 GMT 2013 amarsh Flowering dogwood Cornus florida Leaves Dropping (Middle) 35.866000000000000 -79.082500000000000 22939
Sun Nov 03 00:00:00 GMT 2013 Courtney Flowering dogwood Cornus florida Leaves Changing Color (Middle) 36.964800000000000 -89.089200000000000 22945
Fri Oct 11 00:00:00 GMT 2013 jordynpeifer Flowering dogwood Cornus florida All Leaves Unfolded 37.025600000000000 -88.690400000000000 22957
Sat Nov 02 00:00:00 GMT 2013 usbg Flowering dogwood Cornus florida Leaves Changing Color (Middle) 38.888000000000000 -77.012900000000000 23009
Wed Nov 06 00:00:00 GMT 2013 greendragon Flowering dogwood Cornus florida 50% Leaf Fall 37.662400000000000 -89.250700000000000 23020
Sat Nov 09 00:00:00 GMT 2013 centralNY Flowering dogwood Cornus florida 50% Leaf Fall 43.041000000000000 -76.212900000000000 23044
Sat Oct 12 00:00:00 GMT 2013 ncmns Flowering dogwood Cornus florida Leaves Changing Color (Early) 35.811700000000000 -78.713900000000000 23057
Sat Nov 02 00:00:00 GMT 2013 ncmns Flowering dogwood Cornus florida Leaves Changing Color (Middle) 35.811700000000000 -78.713900000000000 23051
Thu Nov 07 00:00:00 GMT 2013 ncmns Flowering dogwood Cornus florida Leaves Changing Color (Late) 35.782300000000000 -78.639500000000000 23047
Sun Nov 17 00:00:00 GMT 2013 add21792 Flowering dogwood Cornus florida Leaves Dropping (Middle) 39.184800000000000 -86.531700000000000 23509
Wed Oct 16 00:00:00 GMT 2013 ajrumble Flowering dogwood Cornus florida Leaves Changing Color (Middle) 39.165900000000000 -86.514900000000000 23514
Fri Oct 11 00:00:00 GMT 2013 ajrumble Flowering dogwood Cornus florida Leaves Changing Color (Middle) 39.165900000000000 -86.514900000000000 23513
Wed Nov 06 00:00:00 GMT 2013 ajrumble Flowering dogwood Cornus florida Leaves Dropping (Middle) 39.165900000000000 -86.514900000000000 23515
Mon Nov 18 00:00:00 GMT 2013 kckorsta Flowering dogwood Cornus florida Leaves Dropping (Late) 39.174900000000000 -86.515000000000000 23553
Tue Sep 03 00:00:00 GMT 2013 simonejones Flowering dogwood Cornus florida Bud Burst 39.170800000000000 -86.512400000000000 23650
Thu Oct 24 00:00:00 GMT 2013 simonejones Flowering dogwood Cornus florida 50% Color 39.170800000000000 -86.512400000000000 23651
Thu Nov 07 00:00:00 GMT 2013 simonejones Flowering dogwood Cornus florida 50% Leaf Fall 39.170800000000000 -86.512400000000000 23652
Thu Oct 31 00:00:00 GMT 2013 UCSF_137_F13_Loyola_University_Chicago_reporter87 Flowering dogwood Cornus florida Leaves Changing Color (Late) 41.999200000000000 -87.656600000000000 23712
Fri Oct 25 00:00:00 GMT 2013 UCSF_137_F13_Loyola_University_Chicago_reporter87 Flowering dogwood Cornus florida Leaves Changing Color (Middle) 41.999200000000000 -87.656600000000000 23711
Sat Nov 02 00:00:00 GMT 2013 UCSF_137_F13_Loyola_University_Chicago_reporter87 Flowering dogwood Cornus florida Leaves Dropping (Early) 41.999200000000000 -87.656600000000000 23713
Wed Nov 13 00:00:00 GMT 2013 UCSF_137_F13_Loyola_University_Chicago_reporter87 Flowering dogwood Cornus florida Leaves Dropping (Late) 41.999200000000000 -87.656600000000000 23715
Thu Nov 07 00:00:00 GMT 2013 UCSF_137_F13_Loyola_University_Chicago_reporter87 Flowering dogwood Cornus florida Leaves Dropping (Middle) 41.999200000000000 -87.656600000000000 23714
Wed Nov 20 00:00:00 GMT 2013 UCSF_137_F13_Loyola_University_Chicago_reporter115 Flowering dogwood Cornus florida Leaves Dropping (Late) 41.990100000000000 -87.663000000000000 23797
Wed Nov 20 00:00:00 GMT 2013 UCSF_137_F13_Loyola_University_Chicago_reporter115 Flowering dogwood Cornus florida Leaves Changing Color (Middle) 41.990100000000000 -87.663000000000000 23793
Wed Nov 20 00:00:00 GMT 2013 UCSF_137_F13_Loyola_University_Chicago_reporter115 Flowering dogwood Cornus florida Leaves Dropping (Middle) 41.990100000000000 -87.663000000000000 23796
Wed Nov 20 00:00:00 GMT 2013 UCSF_137_F13_Loyola_University_Chicago_reporter115 Flowering dogwood Cornus florida Leaves Changing Color (Middle) 41.990100000000000 -87.663000000000000 23794
Mon Oct 14 00:00:00 GMT 2013 UCSF_137_F13_Loyola_University_Chicago_reporter101 Flowering dogwood Cornus florida Leaves Dropping (Early) 41.998100000000000 -87.655600000000000 23868
Thu Oct 24 00:00:00 GMT 2013 UCSF_137_F13_Loyola_University_Chicago_reporter101 Flowering dogwood Cornus florida Leaves Dropping (Late) 41.998100000000000 -87.655600000000000 23873
Thu Oct 17 00:00:00 GMT 2013 UCSF_137_F13_Loyola_University_Chicago_reporter101 Flowering dogwood Cornus florida Leaves Dropping (Middle) 41.998100000000000 -87.655600000000000 23869
Thu Oct 24 00:00:00 GMT 2013 UCSF_137_F13_Loyola_University_Chicago_reporter101 Flowering dogwood Cornus florida Leaves Dropping (Middle) 41.998100000000000 -87.655600000000000 23870
Sun Oct 27 00:00:00 GMT 2013 UCSF_137_F13_Loyola_University_Chicago_reporter101 Flowering dogwood Cornus florida Fruit (Late) 41.998100000000000 -87.655600000000000 23874
Mon Oct 21 00:00:00 GMT 2013 UCSF_137_F13_Loyola_University_Chicago_reporter101 Flowering dogwood Cornus florida Fruit (Middle) 41.998100000000000 -87.655600000000000 23872
Thu Oct 10 00:00:00 GMT 2013 UCSF_137_F13_Loyola_University_Chicago_reporter101 Flowering dogwood Cornus florida Leaves Changing Color (Late) 41.998100000000000 -87.655600000000000 23867
Tue Oct 08 00:00:00 GMT 2013 UCSF_137_F13_Loyola_University_Chicago_reporter101 Flowering dogwood Cornus florida Leaves Changing Color (Early) 41.998100000000000 -87.655600000000000 23866
Mon Oct 07 00:00:00 GMT 2013 UCSF_137_F13_Loyola_University_Chicago_reporter101 Flowering dogwood Cornus florida Fruit (Middle) 41.998100000000000 -87.655600000000000 23865
Mon Dec 09 00:00:00 GMT 2013 jdonellan Flowering dogwood Cornus florida Leaves Dropping (Late) 39.125500000000000 -77.085000000000000 24328
Mon Dec 09 00:00:00 GMT 2013 jdonellan Flowering dogwood Cornus florida Leaves Dropping (Late) 39.125500000000000 -77.085000000000000 24330
Mon Dec 09 00:00:00 GMT 2013 jdonellan Flowering dogwood Cornus florida Leaves Dropping (Late) 39.125500000000000 -77.085000000000000 24331
Mon Dec 09 00:00:00 GMT 2013 jdonellan Flowering dogwood Cornus florida Leaves Dropping (Late) 39.125500000000000 -77.085000000000000 24329
Thu Apr 11 00:00:00 GMT 2013 tuckerasso Flowering dogwood Cornus florida First Leaf 37.231600000000000 -76.663600000000000 24587
Mon Apr 15 00:00:00 GMT 2013 tuckerasso Flowering dogwood Cornus florida All Leaves Unfolded 37.231600000000000 -76.663600000000000 24588
Tue Apr 09 00:00:00 GMT 2013 tuckerasso Flowering dogwood Cornus florida First Flower 37.231600000000000 -76.663600000000000 24589
Sat Apr 13 00:00:00 GMT 2013 tuckerasso Flowering dogwood Cornus florida Full Flower 37.231600000000000 -76.663600000000000 24590
Mon Nov 25 00:00:00 GMT 2013 tuckerasso Flowering dogwood Cornus florida Full Fruiting 37.231600000000000 -76.663600000000000 24591
Mon Nov 25 00:00:00 GMT 2013 tuckerasso Flowering dogwood Cornus florida 50% Leaf Fall 37.231600000000000 -76.663600000000000 24592

*All downloadable materials require the free Adobe Reader.